<?xml version="1.0" encoding="UTF-8" standalone="no" ?>
<gpx xmlns="http://www.topografix.com/GPX/1/1" xmlns:xsi="http://www.w3.org/2001/XMLSchema-instance" xsi:schemaLocation="http://www.topografix.com/GPX/1/1 http://www.topografix.com/GPX/1/1/gpx.xsd" version="1.1" creator="VisuGPX - https://www.visugpx.com">
  <metadata>
    <name>Pal de fer</name>
    <desc><![CDATA[
]]></desc>
  </metadata>
  <trk>
    <name><![CDATA[Pal de fer_1]]></name>
    <extensions>
      <line xmlns="http://www.topografix.com/GPX/gpx_style/0/2">
        <color>0000FF</color>
        <width>4</width>
      </line>
    </extensions>
    <trkseg>
      <trkpt lat="45.2991" lon="5.89887">
        <ele>256.4460144043</ele>
        <time>2017-10-25T17:03:09Z</time>
      </trkpt>
      <trkpt lat="45.29914" lon="5.89883">
        <ele>256.4460144043</ele>
        <time>2017-10-25T17:03:13Z</time>
      </trkpt>
      <trkpt lat="45.29918" lon="5.8988">
        <ele>256.4460144043</ele>
        <time>2017-10-25T17:03:17Z</time>
      </trkpt>
      <trkpt lat="45.29923" lon="5.89878">
        <ele>256.4460144043</ele>
        <time>2017-10-25T17:03:21Z</time>
      </trkpt>
      <trkpt lat="45.29928" lon="5.89875">
        <ele>257.4460144043</ele>
        <time>2017-10-25T17:03:26Z</time>
      </trkpt>
      <trkpt lat="45.29933" lon="5.89874">
        <ele>258.4460144043</ele>
        <time>2017-10-25T17:03:29Z</time>
      </trkpt>
      <trkpt lat="45.29938" lon="5.89872">
        <ele>262.4460144043</ele>
        <time>2017-10-25T17:03:33Z</time>
      </trkpt>
      <trkpt lat="45.2994" lon="5.89866">
        <ele>262.4460144043</ele>
        <time>2017-10-25T17:03:38Z</time>
      </trkpt>
      <trkpt lat="45.29946" lon="5.89863">
        <ele>262.4460144043</ele>
        <time>2017-10-25T17:03:42Z</time>
      </trkpt>
      <trkpt lat="45.29951" lon="5.8986">
        <ele>263.4460144043</ele>
        <time>2017-10-25T17:03:46Z</time>
      </trkpt>
      <trkpt lat="45.29956" lon="5.89858">
        <ele>266.4460144043</ele>
        <time>2017-10-25T17:03:50Z</time>
      </trkpt>
      <trkpt lat="45.29961" lon="5.89855">
        <ele>267.4460144043</ele>
        <time>2017-10-25T17:03:53Z</time>
      </trkpt>
      <trkpt lat="45.29965" lon="5.89852">
        <ele>267.4460144043</ele>
        <time>2017-10-25T17:03:56Z</time>
      </trkpt>
      <trkpt lat="45.29967" lon="5.89847">
        <ele>267.4460144043</ele>
        <time>2017-10-25T17:03:59Z</time>
      </trkpt>
      <trkpt lat="45.29972" lon="5.8984">
        <ele>258.4460144043</ele>
        <time>2017-10-25T17:04:02Z</time>
      </trkpt>
      <trkpt lat="45.29976" lon="5.89833">
        <ele>264.4460144043</ele>
        <time>2017-10-25T17:04:06Z</time>
      </trkpt>
      <trkpt lat="45.29979" lon="5.89826">
        <ele>267.4460144043</ele>
        <time>2017-10-25T17:04:09Z</time>
      </trkpt>
      <trkpt lat="45.29978" lon="5.8982">
        <ele>268.4460144043</ele>
        <time>2017-10-25T17:04:13Z</time>
      </trkpt>
      <trkpt lat="45.29984" lon="5.89817">
        <ele>268.4460144043</ele>
        <time>2017-10-25T17:04:18Z</time>
      </trkpt>
      <trkpt lat="45.29989" lon="5.89815">
        <ele>268.4460144043</ele>
        <time>2017-10-25T17:04:21Z</time>
      </trkpt>
      <trkpt lat="45.29993" lon="5.89809">
        <ele>268.4460144043</ele>
        <time>2017-10-25T17:04:24Z</time>
      </trkpt>
      <trkpt lat="45.29998" lon="5.89805">
        <ele>269.4460144043</ele>
        <time>2017-10-25T17:04:27Z</time>
      </trkpt>
      <trkpt lat="45.30003" lon="5.89804">
        <ele>269.4460144043</ele>
        <time>2017-10-25T17:04:30Z</time>
      </trkpt>
      <trkpt lat="45.30007" lon="5.89803">
        <ele>264.4460144043</ele>
        <time>2017-10-25T17:04:35Z</time>
      </trkpt>
      <trkpt lat="45.30012" lon="5.89801">
        <ele>265.4460144043</ele>
        <time>2017-10-25T17:04:39Z</time>
      </trkpt>
      <trkpt lat="45.30016" lon="5.898">
        <ele>263.4460144043</ele>
        <time>2017-10-25T17:04:44Z</time>
      </trkpt>
      <trkpt lat="45.30021" lon="5.89797">
        <ele>265.4460144043</ele>
        <time>2017-10-25T17:04:48Z</time>
      </trkpt>
      <trkpt lat="45.30026" lon="5.89793">
        <ele>265.4460144043</ele>
        <time>2017-10-25T17:04:53Z</time>
      </trkpt>
      <trkpt lat="45.3003" lon="5.89788">
        <ele>264.4460144043</ele>
        <time>2017-10-25T17:04:58Z</time>
      </trkpt>
      <trkpt lat="45.30035" lon="5.89786">
        <ele>269.4460144043</ele>
        <time>2017-10-25T17:05:03Z</time>
      </trkpt>
      <trkpt lat="45.30037" lon="5.8978">
        <ele>268.4460144043</ele>
        <time>2017-10-25T17:05:07Z</time>
      </trkpt>
      <trkpt lat="45.30042" lon="5.89776">
        <ele>264.4460144043</ele>
        <time>2017-10-25T17:05:13Z</time>
      </trkpt>
      <trkpt lat="45.30045" lon="5.89771">
        <ele>267.4460144043</ele>
        <time>2017-10-25T17:05:16Z</time>
      </trkpt>
      <trkpt lat="45.30048" lon="5.89765">
        <ele>270.4460144043</ele>
        <time>2017-10-25T17:05:19Z</time>
      </trkpt>
      <trkpt lat="45.30052" lon="5.89759">
        <ele>269.4460144043</ele>
        <time>2017-10-25T17:05:22Z</time>
      </trkpt>
      <trkpt lat="45.30054" lon="5.89753">
        <ele>272.4460144043</ele>
        <time>2017-10-25T17:05:27Z</time>
      </trkpt>
      <trkpt lat="45.30058" lon="5.89747">
        <ele>277.4460144043</ele>
        <time>2017-10-25T17:05:31Z</time>
      </trkpt>
      <trkpt lat="45.3006" lon="5.8974">
        <ele>279.4460144043</ele>
        <time>2017-10-25T17:05:34Z</time>
      </trkpt>
      <trkpt lat="45.30061" lon="5.89733">
        <ele>283.4460144043</ele>
        <time>2017-10-25T17:05:39Z</time>
      </trkpt>
      <trkpt lat="45.30065" lon="5.89725">
        <ele>285.4460144043</ele>
        <time>2017-10-25T17:05:44Z</time>
      </trkpt>
      <trkpt lat="45.30066" lon="5.89718">
        <ele>288.4460144043</ele>
        <time>2017-10-25T17:05:50Z</time>
      </trkpt>
      <trkpt lat="45.30067" lon="5.89709">
        <ele>290.4460144043</ele>
        <time>2017-10-25T17:05:53Z</time>
      </trkpt>
      <trkpt lat="45.3007" lon="5.89702">
        <ele>290.4460144043</ele>
        <time>2017-10-25T17:06:00Z</time>
      </trkpt>
      <trkpt lat="45.3007" lon="5.89695">
        <ele>291.4460144043</ele>
        <time>2017-10-25T17:06:03Z</time>
      </trkpt>
      <trkpt lat="45.3007" lon="5.89686">
        <ele>294.4460144043</ele>
        <time>2017-10-25T17:06:07Z</time>
      </trkpt>
      <trkpt lat="45.3007" lon="5.89679">
        <ele>292.4460144043</ele>
        <time>2017-10-25T17:06:11Z</time>
      </trkpt>
      <trkpt lat="45.30071" lon="5.89672">
        <ele>295.4460144043</ele>
        <time>2017-10-25T17:06:15Z</time>
      </trkpt>
      <trkpt lat="45.30074" lon="5.89666">
        <ele>298.4460144043</ele>
        <time>2017-10-25T17:06:18Z</time>
      </trkpt>
      <trkpt lat="45.30073" lon="5.89658">
        <ele>298.4460144043</ele>
        <time>2017-10-25T17:06:21Z</time>
      </trkpt>
      <trkpt lat="45.30077" lon="5.89651">
        <ele>301.4460144043</ele>
        <time>2017-10-25T17:06:25Z</time>
      </trkpt>
      <trkpt lat="45.30081" lon="5.89644">
        <ele>303.4460144043</ele>
        <time>2017-10-25T17:06:30Z</time>
      </trkpt>
      <trkpt lat="45.30084" lon="5.89638">
        <ele>305.4460144043</ele>
        <time>2017-10-25T17:06:36Z</time>
      </trkpt>
      <trkpt lat="45.30086" lon="5.89631">
        <ele>308.4460144043</ele>
        <time>2017-10-25T17:06:43Z</time>
      </trkpt>
      <trkpt lat="45.30089" lon="5.89627">
        <ele>311.4460144043</ele>
        <time>2017-10-25T17:06:49Z</time>
      </trkpt>
      <trkpt lat="45.30093" lon="5.89621">
        <ele>313.4460144043</ele>
        <time>2017-10-25T17:06:58Z</time>
      </trkpt>
      <trkpt lat="45.30094" lon="5.89615">
        <ele>311.4460144043</ele>
        <time>2017-10-25T17:07:01Z</time>
      </trkpt>
      <trkpt lat="45.30095" lon="5.89609">
        <ele>311.4460144043</ele>
        <time>2017-10-25T17:07:05Z</time>
      </trkpt>
      <trkpt lat="45.3009" lon="5.89611">
        <ele>312.4460144043</ele>
        <time>2017-10-25T17:07:08Z</time>
      </trkpt>
      <trkpt lat="45.30085" lon="5.89605">
        <ele>311.4460144043</ele>
        <time>2017-10-25T17:07:12Z</time>
      </trkpt>
      <trkpt lat="45.30081" lon="5.89604">
        <ele>312.4460144043</ele>
        <time>2017-10-25T17:07:16Z</time>
      </trkpt>
      <trkpt lat="45.30076" lon="5.89602">
        <ele>318.4460144043</ele>
        <time>2017-10-25T17:07:22Z</time>
      </trkpt>
      <trkpt lat="45.30069" lon="5.89602">
        <ele>319.4460144043</ele>
        <time>2017-10-25T17:07:26Z</time>
      </trkpt>
      <trkpt lat="45.30067" lon="5.89597">
        <ele>318.4460144043</ele>
        <time>2017-10-25T17:07:30Z</time>
      </trkpt>
      <trkpt lat="45.30065" lon="5.8959">
        <ele>316.4460144043</ele>
        <time>2017-10-25T17:07:34Z</time>
      </trkpt>
      <trkpt lat="45.30063" lon="5.89585">
        <ele>316.4460144043</ele>
        <time>2017-10-25T17:07:37Z</time>
      </trkpt>
      <trkpt lat="45.30061" lon="5.89578">
        <ele>319.4460144043</ele>
        <time>2017-10-25T17:07:44Z</time>
      </trkpt>
      <trkpt lat="45.30058" lon="5.89572">
        <ele>320.4460144043</ele>
        <time>2017-10-25T17:07:50Z</time>
      </trkpt>
      <trkpt lat="45.30057" lon="5.89565">
        <ele>324.4460144043</ele>
        <time>2017-10-25T17:07:56Z</time>
      </trkpt>
      <trkpt lat="45.30061" lon="5.8956">
        <ele>329.4460144043</ele>
        <time>2017-10-25T17:08:01Z</time>
      </trkpt>
      <trkpt lat="45.3006" lon="5.89553">
        <ele>333.4460144043</ele>
        <time>2017-10-25T17:08:07Z</time>
      </trkpt>
      <trkpt lat="45.30061" lon="5.89547">
        <ele>334.4460144043</ele>
        <time>2017-10-25T17:08:12Z</time>
      </trkpt>
      <trkpt lat="45.30058" lon="5.89541">
        <ele>337.4460144043</ele>
        <time>2017-10-25T17:08:18Z</time>
      </trkpt>
      <trkpt lat="45.30056" lon="5.89535">
        <ele>333.4460144043</ele>
        <time>2017-10-25T17:08:25Z</time>
      </trkpt>
      <trkpt lat="45.30057" lon="5.89529">
        <ele>335.4460144043</ele>
        <time>2017-10-25T17:08:31Z</time>
      </trkpt>
      <trkpt lat="45.30054" lon="5.89523">
        <ele>334.4460144043</ele>
        <time>2017-10-25T17:08:36Z</time>
      </trkpt>
      <trkpt lat="45.3005" lon="5.89517">
        <ele>337.4460144043</ele>
        <time>2017-10-25T17:08:59Z</time>
      </trkpt>
      <trkpt lat="45.30046" lon="5.89513">
        <ele>334.4460144043</ele>
        <time>2017-10-25T17:09:02Z</time>
      </trkpt>
      <trkpt lat="45.30043" lon="5.89508">
        <ele>333.4460144043</ele>
        <time>2017-10-25T17:09:06Z</time>
      </trkpt>
      <trkpt lat="45.3004" lon="5.89503">
        <ele>332.4460144043</ele>
        <time>2017-10-25T17:09:10Z</time>
      </trkpt>
      <trkpt lat="45.30036" lon="5.89498">
        <ele>332.4460144043</ele>
        <time>2017-10-25T17:09:18Z</time>
      </trkpt>
      <trkpt lat="45.30032" lon="5.89495">
        <ele>332.4460144043</ele>
        <time>2017-10-25T17:09:22Z</time>
      </trkpt>
      <trkpt lat="45.3003" lon="5.89487">
        <ele>336.4460144043</ele>
        <time>2017-10-25T17:09:28Z</time>
      </trkpt>
      <trkpt lat="45.30029" lon="5.8948">
        <ele>337.4460144043</ele>
        <time>2017-10-25T17:09:31Z</time>
      </trkpt>
      <trkpt lat="45.30025" lon="5.89475">
        <ele>345.4460144043</ele>
        <time>2017-10-25T17:09:39Z</time>
      </trkpt>
      <trkpt lat="45.3002" lon="5.8947">
        <ele>349.4460144043</ele>
        <time>2017-10-25T17:10:05Z</time>
      </trkpt>
      <trkpt lat="45.30014" lon="5.89469">
        <ele>345.4460144043</ele>
        <time>2017-10-25T17:10:07Z</time>
      </trkpt>
      <trkpt lat="45.30011" lon="5.89464">
        <ele>342.4460144043</ele>
        <time>2017-10-25T17:10:11Z</time>
      </trkpt>
      <trkpt lat="45.30011" lon="5.89455">
        <ele>339.4460144043</ele>
        <time>2017-10-25T17:10:15Z</time>
      </trkpt>
      <trkpt lat="45.30012" lon="5.89449">
        <ele>343.4460144043</ele>
        <time>2017-10-25T17:10:18Z</time>
      </trkpt>
      <trkpt lat="45.30012" lon="5.89442">
        <ele>346.4460144043</ele>
        <time>2017-10-25T17:10:23Z</time>
      </trkpt>
      <trkpt lat="45.30011" lon="5.89436">
        <ele>347.4460144043</ele>
        <time>2017-10-25T17:10:26Z</time>
      </trkpt>
      <trkpt lat="45.30013" lon="5.89429">
        <ele>351.4460144043</ele>
        <time>2017-10-25T17:10:31Z</time>
      </trkpt>
      <trkpt lat="45.30017" lon="5.89421">
        <ele>353.4460144043</ele>
        <time>2017-10-25T17:10:34Z</time>
      </trkpt>
      <trkpt lat="45.30018" lon="5.89412">
        <ele>360.4460144043</ele>
        <time>2017-10-25T17:10:38Z</time>
      </trkpt>
      <trkpt lat="45.30022" lon="5.89404">
        <ele>361.4460144043</ele>
        <time>2017-10-25T17:10:42Z</time>
      </trkpt>
      <trkpt lat="45.30024" lon="5.89397">
        <ele>361.4460144043</ele>
        <time>2017-10-25T17:10:50Z</time>
      </trkpt>
      <trkpt lat="45.30026" lon="5.89391">
        <ele>363.4460144043</ele>
        <time>2017-10-25T17:10:56Z</time>
      </trkpt>
      <trkpt lat="45.3003" lon="5.89387">
        <ele>365.4460144043</ele>
        <time>2017-10-25T17:11:00Z</time>
      </trkpt>
      <trkpt lat="45.30036" lon="5.89381">
        <ele>369.4460144043</ele>
        <time>2017-10-25T17:11:28Z</time>
      </trkpt>
      <trkpt lat="45.3004" lon="5.89375">
        <ele>372.4460144043</ele>
        <time>2017-10-25T17:11:31Z</time>
      </trkpt>
      <trkpt lat="45.30041" lon="5.89366">
        <ele>371.4460144043</ele>
        <time>2017-10-25T17:11:34Z</time>
      </trkpt>
      <trkpt lat="45.30046" lon="5.8936">
        <ele>370.4460144043</ele>
        <time>2017-10-25T17:11:37Z</time>
      </trkpt>
      <trkpt lat="45.30051" lon="5.89358">
        <ele>374.4460144043</ele>
        <time>2017-10-25T17:11:40Z</time>
      </trkpt>
      <trkpt lat="45.30057" lon="5.89356">
        <ele>374.4460144043</ele>
        <time>2017-10-25T17:11:44Z</time>
      </trkpt>
      <trkpt lat="45.30063" lon="5.89357">
        <ele>378.4460144043</ele>
        <time>2017-10-25T17:11:53Z</time>
      </trkpt>
      <trkpt lat="45.30069" lon="5.89352">
        <ele>381.4460144043</ele>
        <time>2017-10-25T17:11:56Z</time>
      </trkpt>
      <trkpt lat="45.3007" lon="5.89359">
        <ele>382.4460144043</ele>
        <time>2017-10-25T17:12:02Z</time>
      </trkpt>
      <trkpt lat="45.30073" lon="5.89366">
        <ele>383.4460144043</ele>
        <time>2017-10-25T17:12:12Z</time>
      </trkpt>
      <trkpt lat="45.30079" lon="5.89362">
        <ele>384.4460144043</ele>
        <time>2017-10-25T17:12:14Z</time>
      </trkpt>
      <trkpt lat="45.30085" lon="5.89361">
        <ele>387.4460144043</ele>
        <time>2017-10-25T17:12:19Z</time>
      </trkpt>
      <trkpt lat="45.3009" lon="5.89364">
        <ele>392.4460144043</ele>
        <time>2017-10-25T17:12:27Z</time>
      </trkpt>
      <trkpt lat="45.30097" lon="5.89364">
        <ele>394.4460144043</ele>
        <time>2017-10-25T17:12:35Z</time>
      </trkpt>
      <trkpt lat="45.30105" lon="5.89363">
        <ele>396.4460144043</ele>
        <time>2017-10-25T17:12:42Z</time>
      </trkpt>
      <trkpt lat="45.30116" lon="5.89357">
        <ele>399.4460144043</ele>
        <time>2017-10-25T17:12:49Z</time>
      </trkpt>
      <trkpt lat="45.30114" lon="5.89363">
        <ele>397.4460144043</ele>
        <time>2017-10-25T17:12:55Z</time>
      </trkpt>
      <trkpt lat="45.30119" lon="5.89361">
        <ele>398.4460144043</ele>
        <time>2017-10-25T17:12:59Z</time>
      </trkpt>
      <trkpt lat="45.30126" lon="5.89362">
        <ele>399.4460144043</ele>
        <time>2017-10-25T17:13:06Z</time>
      </trkpt>
      <trkpt lat="45.30131" lon="5.8936">
        <ele>401.4460144043</ele>
        <time>2017-10-25T17:13:10Z</time>
      </trkpt>
      <trkpt lat="45.30136" lon="5.8936">
        <ele>400.4460144043</ele>
        <time>2017-10-25T17:13:17Z</time>
      </trkpt>
      <trkpt lat="45.3014" lon="5.89363">
        <ele>404.4460144043</ele>
        <time>2017-10-25T17:13:29Z</time>
      </trkpt>
      <trkpt lat="45.30143" lon="5.89368">
        <ele>404.4460144043</ele>
        <time>2017-10-25T17:13:33Z</time>
      </trkpt>
      <trkpt lat="45.3015" lon="5.89364">
        <ele>406.4460144043</ele>
        <time>2017-10-25T17:13:36Z</time>
      </trkpt>
      <trkpt lat="45.30148" lon="5.89372">
        <ele>409.4460144043</ele>
        <time>2017-10-25T17:13:39Z</time>
      </trkpt>
      <trkpt lat="45.30155" lon="5.89369">
        <ele>408.4460144043</ele>
        <time>2017-10-25T17:13:44Z</time>
      </trkpt>
      <trkpt lat="45.30161" lon="5.8937">
        <ele>412.4460144043</ele>
        <time>2017-10-25T17:13:49Z</time>
      </trkpt>
      <trkpt lat="45.30166" lon="5.89369">
        <ele>410.4460144043</ele>
        <time>2017-10-25T17:13:52Z</time>
      </trkpt>
      <trkpt lat="45.30171" lon="5.89369">
        <ele>411.4460144043</ele>
        <time>2017-10-25T17:13:55Z</time>
      </trkpt>
      <trkpt lat="45.30175" lon="5.89372">
        <ele>415.4460144043</ele>
        <time>2017-10-25T17:14:03Z</time>
      </trkpt>
      <trkpt lat="45.30181" lon="5.89373">
        <ele>418.4460144043</ele>
        <time>2017-10-25T17:14:20Z</time>
      </trkpt>
      <trkpt lat="45.30187" lon="5.89372">
        <ele>421.4460144043</ele>
        <time>2017-10-25T17:14:24Z</time>
      </trkpt>
      <trkpt lat="45.30191" lon="5.89371">
        <ele>423.4460144043</ele>
        <time>2017-10-25T17:14:28Z</time>
      </trkpt>
      <trkpt lat="45.30196" lon="5.89373">
        <ele>422.4460144043</ele>
        <time>2017-10-25T17:14:33Z</time>
      </trkpt>
      <trkpt lat="45.30201" lon="5.8937">
        <ele>425.4460144043</ele>
        <time>2017-10-25T17:14:36Z</time>
      </trkpt>
      <trkpt lat="45.30208" lon="5.89369">
        <ele>426.4460144043</ele>
        <time>2017-10-25T17:14:40Z</time>
      </trkpt>
      <trkpt lat="45.30214" lon="5.89367">
        <ele>429.4460144043</ele>
        <time>2017-10-25T17:14:44Z</time>
      </trkpt>
      <trkpt lat="45.30218" lon="5.89368">
        <ele>429.4460144043</ele>
        <time>2017-10-25T17:14:50Z</time>
      </trkpt>
      <trkpt lat="45.30224" lon="5.89371">
        <ele>429.4460144043</ele>
        <time>2017-10-25T17:14:57Z</time>
      </trkpt>
      <trkpt lat="45.30228" lon="5.89369">
        <ele>429.4460144043</ele>
        <time>2017-10-25T17:15:02Z</time>
      </trkpt>
      <trkpt lat="45.30234" lon="5.89367">
        <ele>429.4460144043</ele>
        <time>2017-10-25T17:15:05Z</time>
      </trkpt>
      <trkpt lat="45.30238" lon="5.89368">
        <ele>432.4460144043</ele>
        <time>2017-10-25T17:15:11Z</time>
      </trkpt>
      <trkpt lat="45.30243" lon="5.89368">
        <ele>437.4460144043</ele>
        <time>2017-10-25T17:15:16Z</time>
      </trkpt>
      <trkpt lat="45.30248" lon="5.89364">
        <ele>436.4460144043</ele>
        <time>2017-10-25T17:15:21Z</time>
      </trkpt>
      <trkpt lat="45.30253" lon="5.89362">
        <ele>439.4460144043</ele>
        <time>2017-10-25T17:15:36Z</time>
      </trkpt>
      <trkpt lat="45.30257" lon="5.89358">
        <ele>439.4460144043</ele>
        <time>2017-10-25T17:15:44Z</time>
      </trkpt>
      <trkpt lat="45.30261" lon="5.89353">
        <ele>438.4460144043</ele>
        <time>2017-10-25T17:15:48Z</time>
      </trkpt>
      <trkpt lat="45.30265" lon="5.89348">
        <ele>438.4460144043</ele>
        <time>2017-10-25T17:15:52Z</time>
      </trkpt>
      <trkpt lat="45.3027" lon="5.89345">
        <ele>438.4460144043</ele>
        <time>2017-10-25T17:15:56Z</time>
      </trkpt>
      <trkpt lat="45.30274" lon="5.89339">
        <ele>438.4460144043</ele>
        <time>2017-10-25T17:16:01Z</time>
      </trkpt>
      <trkpt lat="45.30279" lon="5.89335">
        <ele>440.4460144043</ele>
        <time>2017-10-25T17:16:11Z</time>
      </trkpt>
      <trkpt lat="45.30283" lon="5.89332">
        <ele>439.4460144043</ele>
        <time>2017-10-25T17:16:16Z</time>
      </trkpt>
      <trkpt lat="45.30287" lon="5.89327">
        <ele>436.4460144043</ele>
        <time>2017-10-25T17:16:23Z</time>
      </trkpt>
      <trkpt lat="45.30291" lon="5.89321">
        <ele>438.4460144043</ele>
        <time>2017-10-25T17:16:41Z</time>
      </trkpt>
      <trkpt lat="45.30295" lon="5.89318">
        <ele>446.4460144043</ele>
        <time>2017-10-25T17:16:49Z</time>
      </trkpt>
      <trkpt lat="45.30299" lon="5.8931">
        <ele>451.4460144043</ele>
        <time>2017-10-25T17:16:56Z</time>
      </trkpt>
      <trkpt lat="45.30301" lon="5.89304">
        <ele>459.4460144043</ele>
        <time>2017-10-25T17:17:07Z</time>
      </trkpt>
      <trkpt lat="45.30307" lon="5.89298">
        <ele>459.4460144043</ele>
        <time>2017-10-25T17:17:11Z</time>
      </trkpt>
      <trkpt lat="45.30311" lon="5.89293">
        <ele>462.4460144043</ele>
        <time>2017-10-25T17:17:15Z</time>
      </trkpt>
      <trkpt lat="45.30315" lon="5.89287">
        <ele>464.4460144043</ele>
        <time>2017-10-25T17:17:21Z</time>
      </trkpt>
      <trkpt lat="45.30317" lon="5.89279">
        <ele>463.4460144043</ele>
        <time>2017-10-25T17:17:27Z</time>
      </trkpt>
      <trkpt lat="45.30321" lon="5.89275">
        <ele>462.4460144043</ele>
        <time>2017-10-25T17:17:31Z</time>
      </trkpt>
      <trkpt lat="45.30325" lon="5.8927">
        <ele>461.4460144043</ele>
        <time>2017-10-25T17:17:34Z</time>
      </trkpt>
      <trkpt lat="45.3033" lon="5.89265">
        <ele>464.4460144043</ele>
        <time>2017-10-25T17:17:40Z</time>
      </trkpt>
      <trkpt lat="45.30333" lon="5.89259">
        <ele>463.4460144043</ele>
        <time>2017-10-25T17:17:43Z</time>
      </trkpt>
      <trkpt lat="45.30338" lon="5.89257">
        <ele>467.4460144043</ele>
        <time>2017-10-25T17:17:47Z</time>
      </trkpt>
      <trkpt lat="45.30333" lon="5.89255">
        <ele>467.4460144043</ele>
        <time>2017-10-25T17:17:52Z</time>
      </trkpt>
      <trkpt lat="45.30336" lon="5.89248">
        <ele>470.4460144043</ele>
        <time>2017-10-25T17:18:02Z</time>
      </trkpt>
      <trkpt lat="45.30339" lon="5.89242">
        <ele>475.4460144043</ele>
        <time>2017-10-25T17:18:08Z</time>
      </trkpt>
      <trkpt lat="45.30342" lon="5.89234">
        <ele>473.4460144043</ele>
        <time>2017-10-25T17:18:11Z</time>
      </trkpt>
      <trkpt lat="45.30344" lon="5.89228">
        <ele>471.4460144043</ele>
        <time>2017-10-25T17:18:14Z</time>
      </trkpt>
      <trkpt lat="45.3035" lon="5.89223">
        <ele>472.4460144043</ele>
        <time>2017-10-25T17:18:16Z</time>
      </trkpt>
      <trkpt lat="45.30355" lon="5.89217">
        <ele>480.4460144043</ele>
        <time>2017-10-25T17:18:42Z</time>
      </trkpt>
      <trkpt lat="45.30358" lon="5.89212">
        <ele>480.4460144043</ele>
        <time>2017-10-25T17:18:51Z</time>
      </trkpt>
      <trkpt lat="45.30362" lon="5.89203">
        <ele>480.4460144043</ele>
        <time>2017-10-25T17:19:03Z</time>
      </trkpt>
      <trkpt lat="45.30365" lon="5.89198">
        <ele>482.4460144043</ele>
        <time>2017-10-25T17:19:06Z</time>
      </trkpt>
      <trkpt lat="45.30368" lon="5.89193">
        <ele>482.4460144043</ele>
        <time>2017-10-25T17:19:10Z</time>
      </trkpt>
      <trkpt lat="45.30369" lon="5.89186">
        <ele>479.4460144043</ele>
        <time>2017-10-25T17:19:14Z</time>
      </trkpt>
      <trkpt lat="45.30374" lon="5.8918">
        <ele>479.4460144043</ele>
        <time>2017-10-25T17:19:18Z</time>
      </trkpt>
      <trkpt lat="45.30378" lon="5.89171">
        <ele>482.4460144043</ele>
        <time>2017-10-25T17:19:24Z</time>
      </trkpt>
      <trkpt lat="45.30382" lon="5.89166">
        <ele>483.4460144043</ele>
        <time>2017-10-25T17:19:28Z</time>
      </trkpt>
      <trkpt lat="45.30385" lon="5.89159">
        <ele>484.4460144043</ele>
        <time>2017-10-25T17:19:31Z</time>
      </trkpt>
      <trkpt lat="45.30387" lon="5.89153">
        <ele>485.4460144043</ele>
        <time>2017-10-25T17:19:37Z</time>
      </trkpt>
      <trkpt lat="45.30389" lon="5.89147">
        <ele>490.4460144043</ele>
        <time>2017-10-25T17:19:44Z</time>
      </trkpt>
      <trkpt lat="45.30395" lon="5.89146">
        <ele>490.4460144043</ele>
        <time>2017-10-25T17:19:47Z</time>
      </trkpt>
      <trkpt lat="45.304" lon="5.89148">
        <ele>491.4460144043</ele>
        <time>2017-10-25T17:19:59Z</time>
      </trkpt>
      <trkpt lat="45.30403" lon="5.89152">
        <ele>495.4460144043</ele>
        <time>2017-10-25T17:20:09Z</time>
      </trkpt>
      <trkpt lat="45.30405" lon="5.89158">
        <ele>498.4460144043</ele>
        <time>2017-10-25T17:20:17Z</time>
      </trkpt>
      <trkpt lat="45.30405" lon="5.89165">
        <ele>502.4460144043</ele>
        <time>2017-10-25T17:20:22Z</time>
      </trkpt>
      <trkpt lat="45.30406" lon="5.89171">
        <ele>504.4460144043</ele>
        <time>2017-10-25T17:20:29Z</time>
      </trkpt>
      <trkpt lat="45.30413" lon="5.89171">
        <ele>503.4460144043</ele>
        <time>2017-10-25T17:20:31Z</time>
      </trkpt>
      <trkpt lat="45.30418" lon="5.89171">
        <ele>503.4460144043</ele>
        <time>2017-10-25T17:20:33Z</time>
      </trkpt>
      <trkpt lat="45.3042" lon="5.89177">
        <ele>504.4460144043</ele>
        <time>2017-10-25T17:20:36Z</time>
      </trkpt>
      <trkpt lat="45.30419" lon="5.89186">
        <ele>506.4460144043</ele>
        <time>2017-10-25T17:20:39Z</time>
      </trkpt>
      <trkpt lat="45.30424" lon="5.89186">
        <ele>505.4460144043</ele>
        <time>2017-10-25T17:20:41Z</time>
      </trkpt>
      <trkpt lat="45.30428" lon="5.89191">
        <ele>506.4460144043</ele>
        <time>2017-10-25T17:20:44Z</time>
      </trkpt>
      <trkpt lat="45.30433" lon="5.89192">
        <ele>507.4460144043</ele>
        <time>2017-10-25T17:20:46Z</time>
      </trkpt>
      <trkpt lat="45.30445" lon="5.89189">
        <ele>507.4460144043</ele>
        <time>2017-10-25T17:20:49Z</time>
      </trkpt>
      <trkpt lat="45.30451" lon="5.89188">
        <ele>508.4460144043</ele>
        <time>2017-10-25T17:20:52Z</time>
      </trkpt>
      <trkpt lat="45.30457" lon="5.89187">
        <ele>505.4460144043</ele>
        <time>2017-10-25T17:20:54Z</time>
      </trkpt>
      <trkpt lat="45.30462" lon="5.8919">
        <ele>506.4460144043</ele>
        <time>2017-10-25T17:20:56Z</time>
      </trkpt>
      <trkpt lat="45.30465" lon="5.89198">
        <ele>509.4460144043</ele>
        <time>2017-10-25T17:20:59Z</time>
      </trkpt>
      <trkpt lat="45.3047" lon="5.89203">
        <ele>511.4460144043</ele>
        <time>2017-10-25T17:21:01Z</time>
      </trkpt>
      <trkpt lat="45.30474" lon="5.89211">
        <ele>509.4460144043</ele>
        <time>2017-10-25T17:21:04Z</time>
      </trkpt>
      <trkpt lat="45.30477" lon="5.89217">
        <ele>512.44598388672</ele>
        <time>2017-10-25T17:21:07Z</time>
      </trkpt>
      <trkpt lat="45.30477" lon="5.89225">
        <ele>514.44598388672</ele>
        <time>2017-10-25T17:21:10Z</time>
      </trkpt>
      <trkpt lat="45.30477" lon="5.89231">
        <ele>515.44598388672</ele>
        <time>2017-10-25T17:21:13Z</time>
      </trkpt>
      <trkpt lat="45.30474" lon="5.8924">
        <ele>520.44598388672</ele>
        <time>2017-10-25T17:21:16Z</time>
      </trkpt>
      <trkpt lat="45.3048" lon="5.89242">
        <ele>524.44598388672</ele>
        <time>2017-10-25T17:21:21Z</time>
      </trkpt>
      <trkpt lat="45.30484" lon="5.89245">
        <ele>528.44598388672</ele>
        <time>2017-10-25T17:21:38Z</time>
      </trkpt>
      <trkpt lat="45.30489" lon="5.89245">
        <ele>528.44598388672</ele>
        <time>2017-10-25T17:21:59Z</time>
      </trkpt>
      <trkpt lat="45.30496" lon="5.89248">
        <ele>532.44702148438</ele>
        <time>2017-10-25T17:22:07Z</time>
      </trkpt>
      <trkpt lat="45.30502" lon="5.89247">
        <ele>532.44702148438</ele>
        <time>2017-10-25T17:22:17Z</time>
      </trkpt>
      <trkpt lat="45.30506" lon="5.8925">
        <ele>533.44702148438</ele>
        <time>2017-10-25T17:22:24Z</time>
      </trkpt>
      <trkpt lat="45.30509" lon="5.89254">
        <ele>534.44702148438</ele>
        <time>2017-10-25T17:22:29Z</time>
      </trkpt>
      <trkpt lat="45.30515" lon="5.89254">
        <ele>535.44702148438</ele>
        <time>2017-10-25T17:22:33Z</time>
      </trkpt>
      <trkpt lat="45.30522" lon="5.89257">
        <ele>535.44702148438</ele>
        <time>2017-10-25T17:22:36Z</time>
      </trkpt>
      <trkpt lat="45.30525" lon="5.89265">
        <ele>482.4469909668</ele>
        <time>2017-10-25T17:22:38Z</time>
      </trkpt>
      <trkpt lat="45.30526" lon="5.89271">
        <ele>491.4469909668</ele>
        <time>2017-10-25T17:22:40Z</time>
      </trkpt>
      <trkpt lat="45.3053" lon="5.89279">
        <ele>507.4469909668</ele>
        <time>2017-10-25T17:22:43Z</time>
      </trkpt>
      <trkpt lat="45.3053" lon="5.89288">
        <ele>527.44702148438</ele>
        <time>2017-10-25T17:22:46Z</time>
      </trkpt>
      <trkpt lat="45.30536" lon="5.89289">
        <ele>545.44702148438</ele>
        <time>2017-10-25T17:22:50Z</time>
      </trkpt>
      <trkpt lat="45.30544" lon="5.89301">
        <ele>549.44702148438</ele>
        <time>2017-10-25T17:23:00Z</time>
      </trkpt>
      <trkpt lat="45.30542" lon="5.89311">
        <ele>550.44702148438</ele>
        <time>2017-10-25T17:23:02Z</time>
      </trkpt>
      <trkpt lat="45.30542" lon="5.89319">
        <ele>552.44702148438</ele>
        <time>2017-10-25T17:23:04Z</time>
      </trkpt>
      <trkpt lat="45.30541" lon="5.89327">
        <ele>553.44702148438</ele>
        <time>2017-10-25T17:23:06Z</time>
      </trkpt>
      <trkpt lat="45.30539" lon="5.89335">
        <ele>554.44702148438</ele>
        <time>2017-10-25T17:23:08Z</time>
      </trkpt>
      <trkpt lat="45.30539" lon="5.89341">
        <ele>553.44702148438</ele>
        <time>2017-10-25T17:23:12Z</time>
      </trkpt>
      <trkpt lat="45.30548" lon="5.89341">
        <ele>555.44702148438</ele>
        <time>2017-10-25T17:23:18Z</time>
      </trkpt>
      <trkpt lat="45.30547" lon="5.89348">
        <ele>557.44702148438</ele>
        <time>2017-10-25T17:23:21Z</time>
      </trkpt>
      <trkpt lat="45.30543" lon="5.89352">
        <ele>561.44702148438</ele>
        <time>2017-10-25T17:23:39Z</time>
      </trkpt>
      <trkpt lat="45.30545" lon="5.89358">
        <ele>565.44702148438</ele>
        <time>2017-10-25T17:23:49Z</time>
      </trkpt>
      <trkpt lat="45.30549" lon="5.89356">
        <ele>566.44702148438</ele>
        <time>2017-10-25T17:23:54Z</time>
      </trkpt>
      <trkpt lat="45.30555" lon="5.89355">
        <ele>567.44702148438</ele>
        <time>2017-10-25T17:23:59Z</time>
      </trkpt>
      <trkpt lat="45.30555" lon="5.89363">
        <ele>566.44702148438</ele>
        <time>2017-10-25T17:24:03Z</time>
      </trkpt>
      <trkpt lat="45.30552" lon="5.89371">
        <ele>566.44702148438</ele>
        <time>2017-10-25T17:24:05Z</time>
      </trkpt>
      <trkpt lat="45.30553" lon="5.89379">
        <ele>568.44702148438</ele>
        <time>2017-10-25T17:24:14Z</time>
      </trkpt>
      <trkpt lat="45.30554" lon="5.89385">
        <ele>571.44702148438</ele>
        <time>2017-10-25T17:24:21Z</time>
      </trkpt>
      <trkpt lat="45.3056" lon="5.89389">
        <ele>573.44702148438</ele>
        <time>2017-10-25T17:24:27Z</time>
      </trkpt>
      <trkpt lat="45.30565" lon="5.89394">
        <ele>574.44702148438</ele>
        <time>2017-10-25T17:24:29Z</time>
      </trkpt>
      <trkpt lat="45.3057" lon="5.89397">
        <ele>575.44702148438</ele>
        <time>2017-10-25T17:24:32Z</time>
      </trkpt>
      <trkpt lat="45.30574" lon="5.89401">
        <ele>576.44702148438</ele>
        <time>2017-10-25T17:24:35Z</time>
      </trkpt>
      <trkpt lat="45.30577" lon="5.8941">
        <ele>579.44702148438</ele>
        <time>2017-10-25T17:24:38Z</time>
      </trkpt>
      <trkpt lat="45.30581" lon="5.89415">
        <ele>576.44702148438</ele>
        <time>2017-10-25T17:24:42Z</time>
      </trkpt>
      <trkpt lat="45.30579" lon="5.89423">
        <ele>579.44702148438</ele>
        <time>2017-10-25T17:24:45Z</time>
      </trkpt>
      <trkpt lat="45.30576" lon="5.8943">
        <ele>586.44702148438</ele>
        <time>2017-10-25T17:24:50Z</time>
      </trkpt>
      <trkpt lat="45.30579" lon="5.89436">
        <ele>588.44702148438</ele>
        <time>2017-10-25T17:24:57Z</time>
      </trkpt>
      <trkpt lat="45.30584" lon="5.89438">
        <ele>542.44702148438</ele>
        <time>2017-10-25T17:25:02Z</time>
      </trkpt>
      <trkpt lat="45.30588" lon="5.89433">
        <ele>588.44702148438</ele>
        <time>2017-10-25T17:25:11Z</time>
      </trkpt>
      <trkpt lat="45.30592" lon="5.89429">
        <ele>588.44702148438</ele>
        <time>2017-10-25T17:25:19Z</time>
      </trkpt>
      <trkpt lat="45.30597" lon="5.89425">
        <ele>593.44702148438</ele>
        <time>2017-10-25T17:25:30Z</time>
      </trkpt>
      <trkpt lat="45.30602" lon="5.89423">
        <ele>598.44702148438</ele>
        <time>2017-10-25T17:25:34Z</time>
      </trkpt>
      <trkpt lat="45.30606" lon="5.89417">
        <ele>602.44702148438</ele>
        <time>2017-10-25T17:25:49Z</time>
      </trkpt>
      <trkpt lat="45.30607" lon="5.8941">
        <ele>606.44702148438</ele>
        <time>2017-10-25T17:25:59Z</time>
      </trkpt>
      <trkpt lat="45.30606" lon="5.89403">
        <ele>605.44702148438</ele>
        <time>2017-10-25T17:26:06Z</time>
      </trkpt>
      <trkpt lat="45.30607" lon="5.89396">
        <ele>603.44702148438</ele>
        <time>2017-10-25T17:26:19Z</time>
      </trkpt>
      <trkpt lat="45.30605" lon="5.89389">
        <ele>604.44702148438</ele>
        <time>2017-10-25T17:26:24Z</time>
      </trkpt>
      <trkpt lat="45.30607" lon="5.89382">
        <ele>608.44702148438</ele>
        <time>2017-10-25T17:26:30Z</time>
      </trkpt>
      <trkpt lat="45.30605" lon="5.89375">
        <ele>612.44702148438</ele>
        <time>2017-10-25T17:26:35Z</time>
      </trkpt>
      <trkpt lat="45.30605" lon="5.89369">
        <ele>614.44702148438</ele>
        <time>2017-10-25T17:26:44Z</time>
      </trkpt>
      <trkpt lat="45.3061" lon="5.89366">
        <ele>615.44702148438</ele>
        <time>2017-10-25T17:26:46Z</time>
      </trkpt>
      <trkpt lat="45.30612" lon="5.89359">
        <ele>616.44702148438</ele>
        <time>2017-10-25T17:26:51Z</time>
      </trkpt>
      <trkpt lat="45.30615" lon="5.89364">
        <ele>619.44702148438</ele>
        <time>2017-10-25T17:26:56Z</time>
      </trkpt>
      <trkpt lat="45.30621" lon="5.89362">
        <ele>618.44702148438</ele>
        <time>2017-10-25T17:26:57Z</time>
      </trkpt>
      <trkpt lat="45.30625" lon="5.89357">
        <ele>616.44702148438</ele>
        <time>2017-10-25T17:27:01Z</time>
      </trkpt>
      <trkpt lat="45.30627" lon="5.89349">
        <ele>620.44702148438</ele>
        <time>2017-10-25T17:27:05Z</time>
      </trkpt>
      <trkpt lat="45.30631" lon="5.89342">
        <ele>621.44702148438</ele>
        <time>2017-10-25T17:27:07Z</time>
      </trkpt>
      <trkpt lat="45.30629" lon="5.89336">
        <ele>624.44702148438</ele>
        <time>2017-10-25T17:27:12Z</time>
      </trkpt>
      <trkpt lat="45.3063" lon="5.89328">
        <ele>626.44702148438</ele>
        <time>2017-10-25T17:27:18Z</time>
      </trkpt>
      <trkpt lat="45.30635" lon="5.89329">
        <ele>627.44702148438</ele>
        <time>2017-10-25T17:27:22Z</time>
      </trkpt>
      <trkpt lat="45.30638" lon="5.89334">
        <ele>631.44702148438</ele>
        <time>2017-10-25T17:27:26Z</time>
      </trkpt>
      <trkpt lat="45.30643" lon="5.89334">
        <ele>633.44702148438</ele>
        <time>2017-10-25T17:27:29Z</time>
      </trkpt>
      <trkpt lat="45.30643" lon="5.89341">
        <ele>639.44702148438</ele>
        <time>2017-10-25T17:27:33Z</time>
      </trkpt>
      <trkpt lat="45.30648" lon="5.89344">
        <ele>640.44702148438</ele>
        <time>2017-10-25T17:27:38Z</time>
      </trkpt>
      <trkpt lat="45.30649" lon="5.89351">
        <ele>641.44702148438</ele>
        <time>2017-10-25T17:27:44Z</time>
      </trkpt>
      <trkpt lat="45.30649" lon="5.89359">
        <ele>647.44702148438</ele>
        <time>2017-10-25T17:28:11Z</time>
      </trkpt>
      <trkpt lat="45.30653" lon="5.89355">
        <ele>646.44702148438</ele>
        <time>2017-10-25T17:28:23Z</time>
      </trkpt>
      <trkpt lat="45.30659" lon="5.89348">
        <ele>649.44702148438</ele>
        <time>2017-10-25T17:28:32Z</time>
      </trkpt>
      <trkpt lat="45.30663" lon="5.89353">
        <ele>655.44702148438</ele>
        <time>2017-10-25T17:28:44Z</time>
      </trkpt>
      <trkpt lat="45.30666" lon="5.89358">
        <ele>656.44702148438</ele>
        <time>2017-10-25T17:28:47Z</time>
      </trkpt>
      <trkpt lat="45.30671" lon="5.89356">
        <ele>657.44702148438</ele>
        <time>2017-10-25T17:28:52Z</time>
      </trkpt>
      <trkpt lat="45.30672" lon="5.89349">
        <ele>657.44702148438</ele>
        <time>2017-10-25T17:28:56Z</time>
      </trkpt>
      <trkpt lat="45.30674" lon="5.89342">
        <ele>657.44702148438</ele>
        <time>2017-10-25T17:28:59Z</time>
      </trkpt>
      <trkpt lat="45.3068" lon="5.89341">
        <ele>659.44702148438</ele>
        <time>2017-10-25T17:29:05Z</time>
      </trkpt>
      <trkpt lat="45.30684" lon="5.89345">
        <ele>662.44702148438</ele>
        <time>2017-10-25T17:29:10Z</time>
      </trkpt>
      <trkpt lat="45.30689" lon="5.89347">
        <ele>664.44702148438</ele>
        <time>2017-10-25T17:29:14Z</time>
      </trkpt>
      <trkpt lat="45.30693" lon="5.89351">
        <ele>666.44702148438</ele>
        <time>2017-10-25T17:29:18Z</time>
      </trkpt>
      <trkpt lat="45.30697" lon="5.89354">
        <ele>669.44702148438</ele>
        <time>2017-10-25T17:29:28Z</time>
      </trkpt>
      <trkpt lat="45.307" lon="5.89349">
        <ele>670.44702148438</ele>
        <time>2017-10-25T17:29:34Z</time>
      </trkpt>
      <trkpt lat="45.30703" lon="5.89344">
        <ele>671.44702148438</ele>
        <time>2017-10-25T17:29:39Z</time>
      </trkpt>
      <trkpt lat="45.30706" lon="5.8934">
        <ele>675.44702148438</ele>
        <time>2017-10-25T17:29:49Z</time>
      </trkpt>
      <trkpt lat="45.30708" lon="5.89332">
        <ele>679.44702148438</ele>
        <time>2017-10-25T17:30:20Z</time>
      </trkpt>
      <trkpt lat="45.30709" lon="5.89325">
        <ele>680.44702148438</ele>
        <time>2017-10-25T17:30:23Z</time>
      </trkpt>
      <trkpt lat="45.3071" lon="5.89318">
        <ele>682.44702148438</ele>
        <time>2017-10-25T17:30:28Z</time>
      </trkpt>
      <trkpt lat="45.3071" lon="5.89311">
        <ele>682.44702148438</ele>
        <time>2017-10-25T17:30:32Z</time>
      </trkpt>
      <trkpt lat="45.30709" lon="5.89304">
        <ele>684.44702148438</ele>
        <time>2017-10-25T17:30:39Z</time>
      </trkpt>
      <trkpt lat="45.30708" lon="5.89298">
        <ele>687.44702148438</ele>
        <time>2017-10-25T17:30:44Z</time>
      </trkpt>
      <trkpt lat="45.3071" lon="5.8929">
        <ele>686.44702148438</ele>
        <time>2017-10-25T17:30:47Z</time>
      </trkpt>
      <trkpt lat="45.30712" lon="5.89283">
        <ele>685.44702148438</ele>
        <time>2017-10-25T17:30:50Z</time>
      </trkpt>
      <trkpt lat="45.30713" lon="5.89274">
        <ele>686.44702148438</ele>
        <time>2017-10-25T17:30:55Z</time>
      </trkpt>
      <trkpt lat="45.30714" lon="5.89267">
        <ele>685.44702148438</ele>
        <time>2017-10-25T17:30:58Z</time>
      </trkpt>
      <trkpt lat="45.30713" lon="5.8926">
        <ele>687.44702148438</ele>
        <time>2017-10-25T17:31:00Z</time>
      </trkpt>
      <trkpt lat="45.30712" lon="5.89253">
        <ele>688.44702148438</ele>
        <time>2017-10-25T17:31:03Z</time>
      </trkpt>
      <trkpt lat="45.30711" lon="5.89245">
        <ele>690.44702148438</ele>
        <time>2017-10-25T17:31:07Z</time>
      </trkpt>
      <trkpt lat="45.30709" lon="5.89235">
        <ele>693.44702148438</ele>
        <time>2017-10-25T17:31:09Z</time>
      </trkpt>
      <trkpt lat="45.30711" lon="5.89229">
        <ele>695.44702148438</ele>
        <time>2017-10-25T17:31:11Z</time>
      </trkpt>
      <trkpt lat="45.30711" lon="5.89222">
        <ele>696.44702148438</ele>
        <time>2017-10-25T17:31:15Z</time>
      </trkpt>
      <trkpt lat="45.3071" lon="5.89214">
        <ele>696.44702148438</ele>
        <time>2017-10-25T17:31:19Z</time>
      </trkpt>
      <trkpt lat="45.30711" lon="5.89206">
        <ele>696.44702148438</ele>
        <time>2017-10-25T17:31:23Z</time>
      </trkpt>
      <trkpt lat="45.30709" lon="5.892">
        <ele>700.44702148438</ele>
        <time>2017-10-25T17:31:28Z</time>
      </trkpt>
      <trkpt lat="45.30711" lon="5.89193">
        <ele>704.44702148438</ele>
        <time>2017-10-25T17:31:33Z</time>
      </trkpt>
      <trkpt lat="45.30712" lon="5.89186">
        <ele>706.44702148438</ele>
        <time>2017-10-25T17:31:37Z</time>
      </trkpt>
      <trkpt lat="45.3071" lon="5.8918">
        <ele>709.44702148438</ele>
        <time>2017-10-25T17:31:43Z</time>
      </trkpt>
      <trkpt lat="45.30707" lon="5.89174">
        <ele>711.44702148438</ele>
        <time>2017-10-25T17:31:48Z</time>
      </trkpt>
      <trkpt lat="45.30705" lon="5.89167">
        <ele>714.44702148438</ele>
        <time>2017-10-25T17:31:54Z</time>
      </trkpt>
      <trkpt lat="45.30707" lon="5.8916">
        <ele>718.44702148438</ele>
        <time>2017-10-25T17:32:01Z</time>
      </trkpt>
      <trkpt lat="45.30703" lon="5.89155">
        <ele>721.44702148438</ele>
        <time>2017-10-25T17:32:42Z</time>
      </trkpt>
      <trkpt lat="45.30702" lon="5.89148">
        <ele>721.44702148438</ele>
        <time>2017-10-25T17:32:47Z</time>
      </trkpt>
      <trkpt lat="45.307" lon="5.89135">
        <ele>721.44702148438</ele>
        <time>2017-10-25T17:32:52Z</time>
      </trkpt>
      <trkpt lat="45.30695" lon="5.89131">
        <ele>725.44702148438</ele>
        <time>2017-10-25T17:32:55Z</time>
      </trkpt>
      <trkpt lat="45.30697" lon="5.89115">
        <ele>724.44702148438</ele>
        <time>2017-10-25T17:32:58Z</time>
      </trkpt>
      <trkpt lat="45.30693" lon="5.89111">
        <ele>726.44702148438</ele>
        <time>2017-10-25T17:33:00Z</time>
      </trkpt>
      <trkpt lat="45.30694" lon="5.89105">
        <ele>725.44702148438</ele>
        <time>2017-10-25T17:33:02Z</time>
      </trkpt>
      <trkpt lat="45.3069" lon="5.89103">
        <ele>727.44702148438</ele>
        <time>2017-10-25T17:33:05Z</time>
      </trkpt>
      <trkpt lat="45.30688" lon="5.89095">
        <ele>729.44702148438</ele>
        <time>2017-10-25T17:33:08Z</time>
      </trkpt>
      <trkpt lat="45.30693" lon="5.89089">
        <ele>737.44702148438</ele>
        <time>2017-10-25T17:33:26Z</time>
      </trkpt>
      <trkpt lat="45.30701" lon="5.8909">
        <ele>742.44702148438</ele>
        <time>2017-10-25T17:33:31Z</time>
      </trkpt>
      <trkpt lat="45.30705" lon="5.89087">
        <ele>741.44702148438</ele>
        <time>2017-10-25T17:33:32Z</time>
      </trkpt>
      <trkpt lat="45.3071" lon="5.89086">
        <ele>742.44702148438</ele>
        <time>2017-10-25T17:33:35Z</time>
      </trkpt>
      <trkpt lat="45.30715" lon="5.89084">
        <ele>742.44702148438</ele>
        <time>2017-10-25T17:33:37Z</time>
      </trkpt>
      <trkpt lat="45.30719" lon="5.89084">
        <ele>742.44702148438</ele>
        <time>2017-10-25T17:33:40Z</time>
      </trkpt>
      <trkpt lat="45.30724" lon="5.89088">
        <ele>744.44702148438</ele>
        <time>2017-10-25T17:33:44Z</time>
      </trkpt>
      <trkpt lat="45.30731" lon="5.89087">
        <ele>744.44702148438</ele>
        <time>2017-10-25T17:33:48Z</time>
      </trkpt>
      <trkpt lat="45.30732" lon="5.89093">
        <ele>750.44702148438</ele>
        <time>2017-10-25T17:33:58Z</time>
      </trkpt>
      <trkpt lat="45.30736" lon="5.891">
        <ele>756.44702148438</ele>
        <time>2017-10-25T17:34:18Z</time>
      </trkpt>
      <trkpt lat="45.30741" lon="5.891">
        <ele>753.44702148438</ele>
        <time>2017-10-25T17:34:21Z</time>
      </trkpt>
      <trkpt lat="45.30743" lon="5.89106">
        <ele>756.44702148438</ele>
        <time>2017-10-25T17:34:25Z</time>
      </trkpt>
      <trkpt lat="45.30744" lon="5.89114">
        <ele>759.44702148438</ele>
        <time>2017-10-25T17:34:30Z</time>
      </trkpt>
      <trkpt lat="45.30747" lon="5.89121">
        <ele>761.44702148438</ele>
        <time>2017-10-25T17:34:34Z</time>
      </trkpt>
      <trkpt lat="45.3075" lon="5.89127">
        <ele>765.44702148438</ele>
        <time>2017-10-25T17:34:38Z</time>
      </trkpt>
      <trkpt lat="45.30752" lon="5.89134">
        <ele>768.44702148438</ele>
        <time>2017-10-25T17:34:42Z</time>
      </trkpt>
      <trkpt lat="45.30751" lon="5.8914">
        <ele>774.44702148438</ele>
        <time>2017-10-25T17:34:50Z</time>
      </trkpt>
      <trkpt lat="45.30757" lon="5.89142">
        <ele>774.44702148438</ele>
        <time>2017-10-25T17:34:54Z</time>
      </trkpt>
      <trkpt lat="45.30759" lon="5.89148">
        <ele>776.44702148438</ele>
        <time>2017-10-25T17:34:56Z</time>
      </trkpt>
      <trkpt lat="45.30763" lon="5.89152">
        <ele>778.44702148438</ele>
        <time>2017-10-25T17:34:59Z</time>
      </trkpt>
      <trkpt lat="45.30766" lon="5.8916">
        <ele>778.44702148438</ele>
        <time>2017-10-25T17:35:02Z</time>
      </trkpt>
      <trkpt lat="45.30772" lon="5.89165">
        <ele>778.44702148438</ele>
        <time>2017-10-25T17:35:06Z</time>
      </trkpt>
      <trkpt lat="45.30777" lon="5.8917">
        <ele>778.44702148438</ele>
        <time>2017-10-25T17:35:09Z</time>
      </trkpt>
      <trkpt lat="45.30779" lon="5.89176">
        <ele>778.44702148438</ele>
        <time>2017-10-25T17:35:12Z</time>
      </trkpt>
      <trkpt lat="45.30784" lon="5.8918">
        <ele>779.44702148438</ele>
        <time>2017-10-25T17:35:16Z</time>
      </trkpt>
      <trkpt lat="45.30783" lon="5.89174">
        <ele>785.44702148438</ele>
        <time>2017-10-25T17:35:31Z</time>
      </trkpt>
      <trkpt lat="45.30785" lon="5.89167">
        <ele>786.44702148438</ele>
        <time>2017-10-25T17:35:35Z</time>
      </trkpt>
      <trkpt lat="45.30785" lon="5.8916">
        <ele>787.44702148438</ele>
        <time>2017-10-25T17:35:41Z</time>
      </trkpt>
      <trkpt lat="45.30785" lon="5.89152">
        <ele>730.44702148438</ele>
        <time>2017-10-25T17:35:44Z</time>
      </trkpt>
      <trkpt lat="45.30785" lon="5.89145">
        <ele>762.44702148438</ele>
        <time>2017-10-25T17:35:47Z</time>
      </trkpt>
      <trkpt lat="45.30784" lon="5.89137">
        <ele>788.44702148438</ele>
        <time>2017-10-25T17:35:51Z</time>
      </trkpt>
      <trkpt lat="45.30784" lon="5.89129">
        <ele>788.44702148438</ele>
        <time>2017-10-25T17:35:57Z</time>
      </trkpt>
      <trkpt lat="45.30784" lon="5.89122">
        <ele>788.44702148438</ele>
        <time>2017-10-25T17:36:01Z</time>
      </trkpt>
      <trkpt lat="45.30787" lon="5.89104">
        <ele>788.44702148438</ele>
        <time>2017-10-25T17:36:17Z</time>
      </trkpt>
      <trkpt lat="45.3078" lon="5.89099">
        <ele>792.44702148438</ele>
        <time>2017-10-25T17:36:18Z</time>
      </trkpt>
      <trkpt lat="45.30775" lon="5.89096">
        <ele>795.44702148438</ele>
        <time>2017-10-25T17:36:20Z</time>
      </trkpt>
      <trkpt lat="45.30774" lon="5.89089">
        <ele>796.44702148438</ele>
        <time>2017-10-25T17:36:28Z</time>
      </trkpt>
      <trkpt lat="45.30774" lon="5.89081">
        <ele>795.44702148438</ele>
        <time>2017-10-25T17:36:34Z</time>
      </trkpt>
      <trkpt lat="45.30771" lon="5.89075">
        <ele>796.44702148438</ele>
        <time>2017-10-25T17:36:47Z</time>
      </trkpt>
      <trkpt lat="45.30768" lon="5.8907">
        <ele>797.44702148438</ele>
        <time>2017-10-25T17:36:52Z</time>
      </trkpt>
      <trkpt lat="45.30765" lon="5.89062">
        <ele>798.44702148438</ele>
        <time>2017-10-25T17:36:57Z</time>
      </trkpt>
      <trkpt lat="45.30765" lon="5.89055">
        <ele>800.44702148438</ele>
        <time>2017-10-25T17:37:01Z</time>
      </trkpt>
      <trkpt lat="45.30761" lon="5.89052">
        <ele>799.44702148438</ele>
        <time>2017-10-25T17:37:05Z</time>
      </trkpt>
      <trkpt lat="45.30762" lon="5.89044">
        <ele>798.44702148438</ele>
        <time>2017-10-25T17:37:08Z</time>
      </trkpt>
      <trkpt lat="45.3076" lon="5.89038">
        <ele>799.44702148438</ele>
        <time>2017-10-25T17:37:12Z</time>
      </trkpt>
      <trkpt lat="45.30758" lon="5.89031">
        <ele>802.44702148438</ele>
        <time>2017-10-25T17:37:15Z</time>
      </trkpt>
      <trkpt lat="45.30756" lon="5.89024">
        <ele>803.44702148438</ele>
        <time>2017-10-25T17:37:17Z</time>
      </trkpt>
      <trkpt lat="45.30752" lon="5.89019">
        <ele>806.44702148438</ele>
        <time>2017-10-25T17:37:19Z</time>
      </trkpt>
      <trkpt lat="45.30752" lon="5.8901">
        <ele>803.44702148438</ele>
        <time>2017-10-25T17:37:22Z</time>
      </trkpt>
      <trkpt lat="45.30747" lon="5.8901">
        <ele>805.44702148438</ele>
        <time>2017-10-25T17:37:25Z</time>
      </trkpt>
      <trkpt lat="45.30744" lon="5.89005">
        <ele>806.44702148438</ele>
        <time>2017-10-25T17:37:29Z</time>
      </trkpt>
      <trkpt lat="45.30741" lon="5.89">
        <ele>808.44702148438</ele>
        <time>2017-10-25T17:37:31Z</time>
      </trkpt>
      <trkpt lat="45.3074" lon="5.88991">
        <ele>808.44702148438</ele>
        <time>2017-10-25T17:37:34Z</time>
      </trkpt>
      <trkpt lat="45.30736" lon="5.88986">
        <ele>809.44702148438</ele>
        <time>2017-10-25T17:37:36Z</time>
      </trkpt>
      <trkpt lat="45.30733" lon="5.8898">
        <ele>809.44702148438</ele>
        <time>2017-10-25T17:37:40Z</time>
      </trkpt>
      <trkpt lat="45.30727" lon="5.88976">
        <ele>813.44702148438</ele>
        <time>2017-10-25T17:37:45Z</time>
      </trkpt>
      <trkpt lat="45.30724" lon="5.88969">
        <ele>815.44702148438</ele>
        <time>2017-10-25T17:37:48Z</time>
      </trkpt>
      <trkpt lat="45.30723" lon="5.88963">
        <ele>816.44702148438</ele>
        <time>2017-10-25T17:37:51Z</time>
      </trkpt>
      <trkpt lat="45.3072" lon="5.88956">
        <ele>820.44702148438</ele>
        <time>2017-10-25T17:37:58Z</time>
      </trkpt>
      <trkpt lat="45.30722" lon="5.88949">
        <ele>819.44702148438</ele>
        <time>2017-10-25T17:38:05Z</time>
      </trkpt>
      <trkpt lat="45.3072" lon="5.88943">
        <ele>821.44702148438</ele>
        <time>2017-10-25T17:38:22Z</time>
      </trkpt>
      <trkpt lat="45.30724" lon="5.88939">
        <ele>820.44702148438</ele>
        <time>2017-10-25T17:38:34Z</time>
      </trkpt>
      <trkpt lat="45.30733" lon="5.88951">
        <ele>823.44702148438</ele>
        <time>2017-10-25T17:38:54Z</time>
      </trkpt>
      <trkpt lat="45.30731" lon="5.88943">
        <ele>823.44702148438</ele>
        <time>2017-10-25T17:38:57Z</time>
      </trkpt>
      <trkpt lat="45.30731" lon="5.88936">
        <ele>822.44702148438</ele>
        <time>2017-10-25T17:39:03Z</time>
      </trkpt>
      <trkpt lat="45.30731" lon="5.88929">
        <ele>824.44702148438</ele>
        <time>2017-10-25T17:39:08Z</time>
      </trkpt>
      <trkpt lat="45.30731" lon="5.88921">
        <ele>826.44702148438</ele>
        <time>2017-10-25T17:39:11Z</time>
      </trkpt>
      <trkpt lat="45.30732" lon="5.88913">
        <ele>830.44702148438</ele>
        <time>2017-10-25T17:39:14Z</time>
      </trkpt>
      <trkpt lat="45.30733" lon="5.88906">
        <ele>835.44702148438</ele>
        <time>2017-10-25T17:39:18Z</time>
      </trkpt>
      <trkpt lat="45.30735" lon="5.88912">
        <ele>840.44702148438</ele>
        <time>2017-10-25T17:39:26Z</time>
      </trkpt>
      <trkpt lat="45.30738" lon="5.88921">
        <ele>838.44702148438</ele>
        <time>2017-10-25T17:39:30Z</time>
      </trkpt>
      <trkpt lat="45.30739" lon="5.88928">
        <ele>837.44702148438</ele>
        <time>2017-10-25T17:39:32Z</time>
      </trkpt>
      <trkpt lat="45.3074" lon="5.88936">
        <ele>838.44702148438</ele>
        <time>2017-10-25T17:39:34Z</time>
      </trkpt>
      <trkpt lat="45.30742" lon="5.88946">
        <ele>841.44702148438</ele>
        <time>2017-10-25T17:39:36Z</time>
      </trkpt>
      <trkpt lat="45.30744" lon="5.88953">
        <ele>844.44702148438</ele>
        <time>2017-10-25T17:39:39Z</time>
      </trkpt>
      <trkpt lat="45.30745" lon="5.8896">
        <ele>849.44702148438</ele>
        <time>2017-10-25T17:39:42Z</time>
      </trkpt>
      <trkpt lat="45.3075" lon="5.88965">
        <ele>851.44702148438</ele>
        <time>2017-10-25T17:39:45Z</time>
      </trkpt>
      <trkpt lat="45.30755" lon="5.88969">
        <ele>854.44702148438</ele>
        <time>2017-10-25T17:39:49Z</time>
      </trkpt>
      <trkpt lat="45.30757" lon="5.88976">
        <ele>855.44702148438</ele>
        <time>2017-10-25T17:39:52Z</time>
      </trkpt>
      <trkpt lat="45.3076" lon="5.88984">
        <ele>856.44702148438</ele>
        <time>2017-10-25T17:39:55Z</time>
      </trkpt>
      <trkpt lat="45.30761" lon="5.88993">
        <ele>858.44702148438</ele>
        <time>2017-10-25T17:39:57Z</time>
      </trkpt>
      <trkpt lat="45.30764" lon="5.88996">
        <ele>860.44702148438</ele>
        <time>2017-10-25T17:40:01Z</time>
      </trkpt>
      <trkpt lat="45.30767" lon="5.89004">
        <ele>862.44702148438</ele>
        <time>2017-10-25T17:40:04Z</time>
      </trkpt>
      <trkpt lat="45.30769" lon="5.89012">
        <ele>863.44702148438</ele>
        <time>2017-10-25T17:40:07Z</time>
      </trkpt>
      <trkpt lat="45.30771" lon="5.89018">
        <ele>865.44702148438</ele>
        <time>2017-10-25T17:40:24Z</time>
      </trkpt>
      <trkpt lat="45.30775" lon="5.89023">
        <ele>862.44702148438</ele>
        <time>2017-10-25T17:40:31Z</time>
      </trkpt>
      <trkpt lat="45.30777" lon="5.89029">
        <ele>862.44702148438</ele>
        <time>2017-10-25T17:40:37Z</time>
      </trkpt>
      <trkpt lat="45.3078" lon="5.89037">
        <ele>862.44702148438</ele>
        <time>2017-10-25T17:40:43Z</time>
      </trkpt>
      <trkpt lat="45.30783" lon="5.89043">
        <ele>864.44702148438</ele>
        <time>2017-10-25T17:40:47Z</time>
      </trkpt>
      <trkpt lat="45.30786" lon="5.89048">
        <ele>868.44702148438</ele>
        <time>2017-10-25T17:40:53Z</time>
      </trkpt>
      <trkpt lat="45.3079" lon="5.89051">
        <ele>867.44702148438</ele>
        <time>2017-10-25T17:41:01Z</time>
      </trkpt>
      <trkpt lat="45.30795" lon="5.89054">
        <ele>867.44702148438</ele>
        <time>2017-10-25T17:41:07Z</time>
      </trkpt>
      <trkpt lat="45.30795" lon="5.89061">
        <ele>870.44702148438</ele>
        <time>2017-10-25T17:41:15Z</time>
      </trkpt>
      <trkpt lat="45.30799" lon="5.89064">
        <ele>734.44702148438</ele>
        <time>2017-10-25T17:41:27Z</time>
      </trkpt>
      <trkpt lat="45.30804" lon="5.89067">
        <ele>804.44702148438</ele>
        <time>2017-10-25T17:41:31Z</time>
      </trkpt>
      <trkpt lat="45.30805" lon="5.89075">
        <ele>872.44702148438</ele>
        <time>2017-10-25T17:41:34Z</time>
      </trkpt>
      <trkpt lat="45.30806" lon="5.89083">
        <ele>874.44702148438</ele>
        <time>2017-10-25T17:41:38Z</time>
      </trkpt>
      <trkpt lat="45.30809" lon="5.8909">
        <ele>880.44702148438</ele>
        <time>2017-10-25T17:41:44Z</time>
      </trkpt>
      <trkpt lat="45.30815" lon="5.89094">
        <ele>880.44702148438</ele>
        <time>2017-10-25T17:41:46Z</time>
      </trkpt>
      <trkpt lat="45.30816" lon="5.89101">
        <ele>883.44702148438</ele>
        <time>2017-10-25T17:41:51Z</time>
      </trkpt>
      <trkpt lat="45.30819" lon="5.89106">
        <ele>884.44702148438</ele>
        <time>2017-10-25T17:41:55Z</time>
      </trkpt>
      <trkpt lat="45.30822" lon="5.89112">
        <ele>883.44702148438</ele>
        <time>2017-10-25T17:41:57Z</time>
      </trkpt>
      <trkpt lat="45.30826" lon="5.89117">
        <ele>884.44702148438</ele>
        <time>2017-10-25T17:41:59Z</time>
      </trkpt>
      <trkpt lat="45.3083" lon="5.89122">
        <ele>882.44702148438</ele>
        <time>2017-10-25T17:42:02Z</time>
      </trkpt>
      <trkpt lat="45.30835" lon="5.89127">
        <ele>883.44702148438</ele>
        <time>2017-10-25T17:42:07Z</time>
      </trkpt>
      <trkpt lat="45.3084" lon="5.89126">
        <ele>888.44702148438</ele>
        <time>2017-10-25T17:42:11Z</time>
      </trkpt>
      <trkpt lat="45.30846" lon="5.89124">
        <ele>892.44702148438</ele>
        <time>2017-10-25T17:42:16Z</time>
      </trkpt>
      <trkpt lat="45.3085" lon="5.89119">
        <ele>893.44702148438</ele>
        <time>2017-10-25T17:42:21Z</time>
      </trkpt>
      <trkpt lat="45.30853" lon="5.89114">
        <ele>894.44702148438</ele>
        <time>2017-10-25T17:42:24Z</time>
      </trkpt>
      <trkpt lat="45.30855" lon="5.89108">
        <ele>762.44702148438</ele>
        <time>2017-10-25T17:42:28Z</time>
      </trkpt>
      <trkpt lat="45.30858" lon="5.89101">
        <ele>818.44702148438</ele>
        <time>2017-10-25T17:42:31Z</time>
      </trkpt>
      <trkpt lat="45.30858" lon="5.89095">
        <ele>893.44702148438</ele>
        <time>2017-10-25T17:42:45Z</time>
      </trkpt>
      <trkpt lat="45.3086" lon="5.89087">
        <ele>898.44702148438</ele>
        <time>2017-10-25T17:42:50Z</time>
      </trkpt>
      <trkpt lat="45.3086" lon="5.8908">
        <ele>903.44702148438</ele>
        <time>2017-10-25T17:42:55Z</time>
      </trkpt>
      <trkpt lat="45.30859" lon="5.89071">
        <ele>904.44702148438</ele>
        <time>2017-10-25T17:42:59Z</time>
      </trkpt>
      <trkpt lat="45.3086" lon="5.89065">
        <ele>904.44702148438</ele>
        <time>2017-10-25T17:43:04Z</time>
      </trkpt>
      <trkpt lat="45.30861" lon="5.89057">
        <ele>904.44702148438</ele>
        <time>2017-10-25T17:43:10Z</time>
      </trkpt>
      <trkpt lat="45.30862" lon="5.8905">
        <ele>903.44702148438</ele>
        <time>2017-10-25T17:43:16Z</time>
      </trkpt>
      <trkpt lat="45.30863" lon="5.89043">
        <ele>904.44702148438</ele>
        <time>2017-10-25T17:43:22Z</time>
      </trkpt>
      <trkpt lat="45.30862" lon="5.89037">
        <ele>907.44702148438</ele>
        <time>2017-10-25T17:43:27Z</time>
      </trkpt>
      <trkpt lat="45.30863" lon="5.8903">
        <ele>906.44702148438</ele>
        <time>2017-10-25T17:43:33Z</time>
      </trkpt>
      <trkpt lat="45.30862" lon="5.89023">
        <ele>907.44702148438</ele>
        <time>2017-10-25T17:43:36Z</time>
      </trkpt>
      <trkpt lat="45.30864" lon="5.89017">
        <ele>909.44702148438</ele>
        <time>2017-10-25T17:43:39Z</time>
      </trkpt>
      <trkpt lat="45.30864" lon="5.89009">
        <ele>909.44702148438</ele>
        <time>2017-10-25T17:43:43Z</time>
      </trkpt>
      <trkpt lat="45.30862" lon="5.89003">
        <ele>910.44702148438</ele>
        <time>2017-10-25T17:43:47Z</time>
      </trkpt>
      <trkpt lat="45.30862" lon="5.88996">
        <ele>835.44702148438</ele>
        <time>2017-10-25T17:43:53Z</time>
      </trkpt>
      <trkpt lat="45.30863" lon="5.88989">
        <ele>903.44702148438</ele>
        <time>2017-10-25T17:43:58Z</time>
      </trkpt>
      <trkpt lat="45.30863" lon="5.88982">
        <ele>910.44702148438</ele>
        <time>2017-10-25T17:44:03Z</time>
      </trkpt>
      <trkpt lat="45.30862" lon="5.88973">
        <ele>912.44702148438</ele>
        <time>2017-10-25T17:44:07Z</time>
      </trkpt>
      <trkpt lat="45.30862" lon="5.88966">
        <ele>912.44702148438</ele>
        <time>2017-10-25T17:44:09Z</time>
      </trkpt>
      <trkpt lat="45.30861" lon="5.88959">
        <ele>913.44702148438</ele>
        <time>2017-10-25T17:44:12Z</time>
      </trkpt>
      <trkpt lat="45.3086" lon="5.88952">
        <ele>911.44702148438</ele>
        <time>2017-10-25T17:44:14Z</time>
      </trkpt>
      <trkpt lat="45.3086" lon="5.88943">
        <ele>912.44702148438</ele>
        <time>2017-10-25T17:44:17Z</time>
      </trkpt>
      <trkpt lat="45.3086" lon="5.88933">
        <ele>912.44702148438</ele>
        <time>2017-10-25T17:44:19Z</time>
      </trkpt>
      <trkpt lat="45.30857" lon="5.88926">
        <ele>914.44702148438</ele>
        <time>2017-10-25T17:44:22Z</time>
      </trkpt>
      <trkpt lat="45.30854" lon="5.88919">
        <ele>918.44702148438</ele>
        <time>2017-10-25T17:44:25Z</time>
      </trkpt>
      <trkpt lat="45.30853" lon="5.88913">
        <ele>919.44702148438</ele>
        <time>2017-10-25T17:44:30Z</time>
      </trkpt>
      <trkpt lat="45.30853" lon="5.88905">
        <ele>918.44702148438</ele>
        <time>2017-10-25T17:44:33Z</time>
      </trkpt>
      <trkpt lat="45.30854" lon="5.88898">
        <ele>919.44702148438</ele>
        <time>2017-10-25T17:44:35Z</time>
      </trkpt>
      <trkpt lat="45.30858" lon="5.88893">
        <ele>919.44702148438</ele>
        <time>2017-10-25T17:44:38Z</time>
      </trkpt>
      <trkpt lat="45.30863" lon="5.88893">
        <ele>920.44702148438</ele>
        <time>2017-10-25T17:44:43Z</time>
      </trkpt>
      <trkpt lat="45.30864" lon="5.88886">
        <ele>924.44702148438</ele>
        <time>2017-10-25T17:44:48Z</time>
      </trkpt>
      <trkpt lat="45.30862" lon="5.8888">
        <ele>927.44702148438</ele>
        <time>2017-10-25T17:44:51Z</time>
      </trkpt>
      <trkpt lat="45.3086" lon="5.88873">
        <ele>914.44702148438</ele>
        <time>2017-10-25T17:44:53Z</time>
      </trkpt>
      <trkpt lat="45.3086" lon="5.88866">
        <ele>923.44702148438</ele>
        <time>2017-10-25T17:44:56Z</time>
      </trkpt>
      <trkpt lat="45.30861" lon="5.88857">
        <ele>926.44702148438</ele>
        <time>2017-10-25T17:44:59Z</time>
      </trkpt>
      <trkpt lat="45.30863" lon="5.8885">
        <ele>929.44702148438</ele>
        <time>2017-10-25T17:45:03Z</time>
      </trkpt>
      <trkpt lat="45.30863" lon="5.88841">
        <ele>932.44702148438</ele>
        <time>2017-10-25T17:45:06Z</time>
      </trkpt>
      <trkpt lat="45.30863" lon="5.88834">
        <ele>933.44702148438</ele>
        <time>2017-10-25T17:45:12Z</time>
      </trkpt>
      <trkpt lat="45.30863" lon="5.88841">
        <ele>935.44702148438</ele>
        <time>2017-10-25T17:45:25Z</time>
      </trkpt>
      <trkpt lat="45.30863" lon="5.88834">
        <ele>937.44702148438</ele>
        <time>2017-10-25T17:45:39Z</time>
      </trkpt>
      <trkpt lat="45.30862" lon="5.88827">
        <ele>939.44702148438</ele>
        <time>2017-10-25T17:45:45Z</time>
      </trkpt>
      <trkpt lat="45.3086" lon="5.88821">
        <ele>940.44702148438</ele>
        <time>2017-10-25T17:45:51Z</time>
      </trkpt>
      <trkpt lat="45.30857" lon="5.88813">
        <ele>945.44702148438</ele>
        <time>2017-10-25T17:45:56Z</time>
      </trkpt>
      <trkpt lat="45.30855" lon="5.88807">
        <ele>946.44702148438</ele>
        <time>2017-10-25T17:46:01Z</time>
      </trkpt>
      <trkpt lat="45.30855" lon="5.888">
        <ele>945.44702148438</ele>
        <time>2017-10-25T17:46:07Z</time>
      </trkpt>
      <trkpt lat="45.30856" lon="5.88791">
        <ele>942.44702148438</ele>
        <time>2017-10-25T17:46:12Z</time>
      </trkpt>
      <trkpt lat="45.30855" lon="5.88783">
        <ele>943.44702148438</ele>
        <time>2017-10-25T17:46:14Z</time>
      </trkpt>
      <trkpt lat="45.30855" lon="5.88776">
        <ele>944.44702148438</ele>
        <time>2017-10-25T17:46:16Z</time>
      </trkpt>
      <trkpt lat="45.30855" lon="5.8877">
        <ele>944.44702148438</ele>
        <time>2017-10-25T17:46:18Z</time>
      </trkpt>
      <trkpt lat="45.30856" lon="5.88761">
        <ele>943.44702148438</ele>
        <time>2017-10-25T17:46:21Z</time>
      </trkpt>
      <trkpt lat="45.30858" lon="5.88755">
        <ele>943.44702148438</ele>
        <time>2017-10-25T17:46:22Z</time>
      </trkpt>
      <trkpt lat="45.30863" lon="5.88749">
        <ele>942.44702148438</ele>
        <time>2017-10-25T17:46:24Z</time>
      </trkpt>
      <trkpt lat="45.30869" lon="5.88744">
        <ele>942.44702148438</ele>
        <time>2017-10-25T17:46:27Z</time>
      </trkpt>
      <trkpt lat="45.30875" lon="5.88743">
        <ele>942.44702148438</ele>
        <time>2017-10-25T17:46:29Z</time>
      </trkpt>
      <trkpt lat="45.30881" lon="5.88745">
        <ele>943.44702148438</ele>
        <time>2017-10-25T17:46:32Z</time>
      </trkpt>
      <trkpt lat="45.30885" lon="5.88749">
        <ele>945.44702148438</ele>
        <time>2017-10-25T17:46:34Z</time>
      </trkpt>
      <trkpt lat="45.30889" lon="5.88752">
        <ele>945.44702148438</ele>
        <time>2017-10-25T17:46:36Z</time>
      </trkpt>
      <trkpt lat="45.30893" lon="5.88757">
        <ele>949.44702148438</ele>
        <time>2017-10-25T17:46:39Z</time>
      </trkpt>
      <trkpt lat="45.30897" lon="5.88764">
        <ele>951.44702148438</ele>
        <time>2017-10-25T17:46:42Z</time>
      </trkpt>
      <trkpt lat="45.309" lon="5.88768">
        <ele>954.44702148438</ele>
        <time>2017-10-25T17:46:44Z</time>
      </trkpt>
      <trkpt lat="45.30905" lon="5.88774">
        <ele>956.44702148438</ele>
        <time>2017-10-25T17:46:47Z</time>
      </trkpt>
      <trkpt lat="45.30909" lon="5.88776">
        <ele>957.44702148438</ele>
        <time>2017-10-25T17:46:49Z</time>
      </trkpt>
      <trkpt lat="45.30914" lon="5.88778">
        <ele>958.44702148438</ele>
        <time>2017-10-25T17:46:52Z</time>
      </trkpt>
      <trkpt lat="45.30919" lon="5.88778">
        <ele>960.44702148438</ele>
        <time>2017-10-25T17:46:54Z</time>
      </trkpt>
      <trkpt lat="45.30924" lon="5.88778">
        <ele>960.44702148438</ele>
        <time>2017-10-25T17:46:56Z</time>
      </trkpt>
      <trkpt lat="45.3093" lon="5.88778">
        <ele>961.44702148438</ele>
        <time>2017-10-25T17:46:58Z</time>
      </trkpt>
      <trkpt lat="45.30937" lon="5.88778">
        <ele>963.44702148438</ele>
        <time>2017-10-25T17:47:00Z</time>
      </trkpt>
      <trkpt lat="45.30942" lon="5.88776">
        <ele>963.44702148438</ele>
        <time>2017-10-25T17:47:03Z</time>
      </trkpt>
      <trkpt lat="45.30946" lon="5.88772">
        <ele>965.44702148438</ele>
        <time>2017-10-25T17:47:06Z</time>
      </trkpt>
      <trkpt lat="45.30952" lon="5.88771">
        <ele>964.44702148438</ele>
        <time>2017-10-25T17:47:08Z</time>
      </trkpt>
      <trkpt lat="45.30957" lon="5.88769">
        <ele>965.44702148438</ele>
        <time>2017-10-25T17:47:10Z</time>
      </trkpt>
      <trkpt lat="45.30952" lon="5.88771">
        <ele>966.44702148438</ele>
        <time>2017-10-25T17:47:17Z</time>
      </trkpt>
      <trkpt lat="45.30946" lon="5.88773">
        <ele>966.44702148438</ele>
        <time>2017-10-25T17:47:25Z</time>
      </trkpt>
      <trkpt lat="45.30952" lon="5.88771">
        <ele>967.44702148438</ele>
        <time>2017-10-25T17:47:35Z</time>
      </trkpt>
      <trkpt lat="45.30957" lon="5.8877">
        <ele>968.44702148438</ele>
        <time>2017-10-25T17:47:40Z</time>
      </trkpt>
      <trkpt lat="45.30961" lon="5.88766">
        <ele>969.44702148438</ele>
        <time>2017-10-25T17:47:46Z</time>
      </trkpt>
      <trkpt lat="45.30966" lon="5.88763">
        <ele>970.44702148438</ele>
        <time>2017-10-25T17:47:52Z</time>
      </trkpt>
      <trkpt lat="45.3097" lon="5.88761">
        <ele>971.44702148438</ele>
        <time>2017-10-25T17:47:58Z</time>
      </trkpt>
      <trkpt lat="45.30975" lon="5.88759">
        <ele>971.44702148438</ele>
        <time>2017-10-25T17:48:04Z</time>
      </trkpt>
      <trkpt lat="45.3098" lon="5.88761">
        <ele>973.44702148438</ele>
        <time>2017-10-25T17:48:12Z</time>
      </trkpt>
      <trkpt lat="45.30973" lon="5.8876">
        <ele>972.44702148438</ele>
        <time>2017-10-25T17:48:24Z</time>
      </trkpt>
      <trkpt lat="45.30968" lon="5.88761">
        <ele>971.44702148438</ele>
        <time>2017-10-25T17:48:30Z</time>
      </trkpt>
      <trkpt lat="45.30964" lon="5.88762">
        <ele>970.44702148438</ele>
        <time>2017-10-25T17:48:35Z</time>
      </trkpt>
      <trkpt lat="45.30959" lon="5.88765">
        <ele>970.44702148438</ele>
        <time>2017-10-25T17:48:39Z</time>
      </trkpt>
      <trkpt lat="45.30955" lon="5.88769">
        <ele>970.44702148438</ele>
        <time>2017-10-25T17:48:44Z</time>
      </trkpt>
      <trkpt lat="45.3095" lon="5.88769">
        <ele>971.44702148438</ele>
        <time>2017-10-25T17:48:47Z</time>
      </trkpt>
      <trkpt lat="45.30944" lon="5.8877">
        <ele>971.44702148438</ele>
        <time>2017-10-25T17:48:51Z</time>
      </trkpt>
      <trkpt lat="45.30939" lon="5.88771">
        <ele>967.44702148438</ele>
        <time>2017-10-25T17:48:55Z</time>
      </trkpt>
      <trkpt lat="45.30934" lon="5.88771">
        <ele>970.44702148438</ele>
        <time>2017-10-25T17:48:58Z</time>
      </trkpt>
      <trkpt lat="45.30928" lon="5.88773">
        <ele>968.44702148438</ele>
        <time>2017-10-25T17:49:02Z</time>
      </trkpt>
      <trkpt lat="45.30924" lon="5.88774">
        <ele>967.44702148438</ele>
        <time>2017-10-25T17:49:07Z</time>
      </trkpt>
      <trkpt lat="45.30918" lon="5.88775">
        <ele>970.44702148438</ele>
        <time>2017-10-25T17:49:11Z</time>
      </trkpt>
      <trkpt lat="45.30913" lon="5.88774">
        <ele>967.44702148438</ele>
        <time>2017-10-25T17:49:20Z</time>
      </trkpt>
      <trkpt lat="45.30907" lon="5.88772">
        <ele>966.44702148438</ele>
        <time>2017-10-25T17:49:25Z</time>
      </trkpt>
      <trkpt lat="45.30902" lon="5.88769">
        <ele>963.44702148438</ele>
        <time>2017-10-25T17:49:31Z</time>
      </trkpt>
      <trkpt lat="45.30897" lon="5.88767">
        <ele>965.44702148438</ele>
        <time>2017-10-25T17:49:34Z</time>
      </trkpt>
      <trkpt lat="45.30894" lon="5.88762">
        <ele>964.44702148438</ele>
        <time>2017-10-25T17:49:38Z</time>
      </trkpt>
      <trkpt lat="45.30889" lon="5.88757">
        <ele>966.44702148438</ele>
        <time>2017-10-25T17:49:42Z</time>
      </trkpt>
      <trkpt lat="45.30886" lon="5.88752">
        <ele>964.44702148438</ele>
        <time>2017-10-25T17:49:47Z</time>
      </trkpt>
      <trkpt lat="45.30882" lon="5.88748">
        <ele>962.44702148438</ele>
        <time>2017-10-25T17:49:51Z</time>
      </trkpt>
      <trkpt lat="45.30878" lon="5.88743">
        <ele>959.44702148438</ele>
        <time>2017-10-25T17:49:56Z</time>
      </trkpt>
      <trkpt lat="45.30872" lon="5.88738">
        <ele>958.44702148438</ele>
        <time>2017-10-25T17:50:02Z</time>
      </trkpt>
      <trkpt lat="45.30867" lon="5.8874">
        <ele>956.44702148438</ele>
        <time>2017-10-25T17:50:07Z</time>
      </trkpt>
      <trkpt lat="45.30862" lon="5.88742">
        <ele>956.44702148438</ele>
        <time>2017-10-25T17:50:11Z</time>
      </trkpt>
      <trkpt lat="45.30854" lon="5.88746">
        <ele>951.44702148438</ele>
        <time>2017-10-25T17:50:17Z</time>
      </trkpt>
      <trkpt lat="45.30854" lon="5.88754">
        <ele>950.44702148438</ele>
        <time>2017-10-25T17:50:20Z</time>
      </trkpt>
      <trkpt lat="45.30857" lon="5.88759">
        <ele>948.44702148438</ele>
        <time>2017-10-25T17:50:23Z</time>
      </trkpt>
      <trkpt lat="45.30856" lon="5.88766">
        <ele>947.44702148438</ele>
        <time>2017-10-25T17:50:28Z</time>
      </trkpt>
      <trkpt lat="45.30856" lon="5.88773">
        <ele>945.44702148438</ele>
        <time>2017-10-25T17:50:33Z</time>
      </trkpt>
      <trkpt lat="45.30853" lon="5.88778">
        <ele>944.44702148438</ele>
        <time>2017-10-25T17:50:37Z</time>
      </trkpt>
      <trkpt lat="45.30854" lon="5.88784">
        <ele>942.44702148438</ele>
        <time>2017-10-25T17:50:41Z</time>
      </trkpt>
      <trkpt lat="45.30854" lon="5.8879">
        <ele>942.44702148438</ele>
        <time>2017-10-25T17:50:45Z</time>
      </trkpt>
      <trkpt lat="45.30853" lon="5.88797">
        <ele>944.44702148438</ele>
        <time>2017-10-25T17:50:49Z</time>
      </trkpt>
      <trkpt lat="45.30855" lon="5.88802">
        <ele>943.44702148438</ele>
        <time>2017-10-25T17:50:52Z</time>
      </trkpt>
      <trkpt lat="45.30853" lon="5.88809">
        <ele>944.44702148438</ele>
        <time>2017-10-25T17:50:56Z</time>
      </trkpt>
      <trkpt lat="45.30853" lon="5.88816">
        <ele>945.44702148438</ele>
        <time>2017-10-25T17:51:00Z</time>
      </trkpt>
      <trkpt lat="45.30856" lon="5.88821">
        <ele>943.44702148438</ele>
        <time>2017-10-25T17:51:06Z</time>
      </trkpt>
      <trkpt lat="45.30855" lon="5.88828">
        <ele>943.44702148438</ele>
        <time>2017-10-25T17:51:09Z</time>
      </trkpt>
      <trkpt lat="45.30857" lon="5.88835">
        <ele>943.44702148438</ele>
        <time>2017-10-25T17:51:13Z</time>
      </trkpt>
      <trkpt lat="45.30859" lon="5.8884">
        <ele>941.44702148438</ele>
        <time>2017-10-25T17:51:20Z</time>
      </trkpt>
      <trkpt lat="45.3086" lon="5.88847">
        <ele>938.44702148438</ele>
        <time>2017-10-25T17:51:26Z</time>
      </trkpt>
      <trkpt lat="45.3086" lon="5.88855">
        <ele>935.44702148438</ele>
        <time>2017-10-25T17:51:33Z</time>
      </trkpt>
      <trkpt lat="45.3086" lon="5.88862">
        <ele>936.44702148438</ele>
        <time>2017-10-25T17:51:38Z</time>
      </trkpt>
      <trkpt lat="45.30861" lon="5.8887">
        <ele>935.44702148438</ele>
        <time>2017-10-25T17:51:44Z</time>
      </trkpt>
      <trkpt lat="45.30861" lon="5.88876">
        <ele>936.44702148438</ele>
        <time>2017-10-25T17:51:50Z</time>
      </trkpt>
      <trkpt lat="45.30863" lon="5.88882">
        <ele>939.44702148438</ele>
        <time>2017-10-25T17:51:54Z</time>
      </trkpt>
      <trkpt lat="45.3086" lon="5.88888">
        <ele>940.44702148438</ele>
        <time>2017-10-25T17:51:59Z</time>
      </trkpt>
      <trkpt lat="45.30855" lon="5.88888">
        <ele>930.44702148438</ele>
        <time>2017-10-25T17:52:09Z</time>
      </trkpt>
      <trkpt lat="45.3085" lon="5.88893">
        <ele>930.44702148438</ele>
        <time>2017-10-25T17:52:14Z</time>
      </trkpt>
      <trkpt lat="45.30851" lon="5.88901">
        <ele>931.44702148438</ele>
        <time>2017-10-25T17:52:20Z</time>
      </trkpt>
      <trkpt lat="45.30851" lon="5.88909">
        <ele>931.44702148438</ele>
        <time>2017-10-25T17:52:25Z</time>
      </trkpt>
      <trkpt lat="45.30853" lon="5.88916">
        <ele>927.44702148438</ele>
        <time>2017-10-25T17:52:32Z</time>
      </trkpt>
      <trkpt lat="45.30849" lon="5.88923">
        <ele>924.44702148438</ele>
        <time>2017-10-25T17:52:36Z</time>
      </trkpt>
      <trkpt lat="45.30851" lon="5.8893">
        <ele>922.44702148438</ele>
        <time>2017-10-25T17:52:40Z</time>
      </trkpt>
      <trkpt lat="45.30851" lon="5.88938">
        <ele>923.44702148438</ele>
        <time>2017-10-25T17:52:43Z</time>
      </trkpt>
      <trkpt lat="45.30852" lon="5.88945">
        <ele>923.44702148438</ele>
        <time>2017-10-25T17:52:47Z</time>
      </trkpt>
      <trkpt lat="45.30855" lon="5.88951">
        <ele>923.44702148438</ele>
        <time>2017-10-25T17:52:51Z</time>
      </trkpt>
      <trkpt lat="45.30856" lon="5.88957">
        <ele>926.44702148438</ele>
        <time>2017-10-25T17:52:54Z</time>
      </trkpt>
      <trkpt lat="45.30857" lon="5.88964">
        <ele>922.44702148438</ele>
        <time>2017-10-25T17:52:57Z</time>
      </trkpt>
      <trkpt lat="45.30859" lon="5.88971">
        <ele>920.44702148438</ele>
        <time>2017-10-25T17:53:00Z</time>
      </trkpt>
      <trkpt lat="45.30861" lon="5.88978">
        <ele>918.44702148438</ele>
        <time>2017-10-25T17:53:04Z</time>
      </trkpt>
      <trkpt lat="45.30862" lon="5.88985">
        <ele>918.44702148438</ele>
        <time>2017-10-25T17:53:08Z</time>
      </trkpt>
      <trkpt lat="45.30862" lon="5.88992">
        <ele>917.44702148438</ele>
        <time>2017-10-25T17:53:11Z</time>
      </trkpt>
      <trkpt lat="45.30863" lon="5.88998">
        <ele>916.44702148438</ele>
        <time>2017-10-25T17:53:15Z</time>
      </trkpt>
      <trkpt lat="45.30864" lon="5.89007">
        <ele>916.44702148438</ele>
        <time>2017-10-25T17:53:18Z</time>
      </trkpt>
      <trkpt lat="45.30865" lon="5.89014">
        <ele>914.44702148438</ele>
        <time>2017-10-25T17:53:21Z</time>
      </trkpt>
      <trkpt lat="45.30864" lon="5.8902">
        <ele>912.44702148438</ele>
        <time>2017-10-25T17:53:25Z</time>
      </trkpt>
      <trkpt lat="45.30861" lon="5.89026">
        <ele>911.44702148438</ele>
        <time>2017-10-25T17:53:28Z</time>
      </trkpt>
      <trkpt lat="45.3086" lon="5.89034">
        <ele>910.44702148438</ele>
        <time>2017-10-25T17:53:33Z</time>
      </trkpt>
      <trkpt lat="45.3086" lon="5.89043">
        <ele>911.44702148438</ele>
        <time>2017-10-25T17:53:39Z</time>
      </trkpt>
      <trkpt lat="45.30861" lon="5.89051">
        <ele>909.44702148438</ele>
        <time>2017-10-25T17:53:44Z</time>
      </trkpt>
      <trkpt lat="45.30861" lon="5.89058">
        <ele>912.44702148438</ele>
        <time>2017-10-25T17:53:46Z</time>
      </trkpt>
      <trkpt lat="45.30862" lon="5.89064">
        <ele>912.44702148438</ele>
        <time>2017-10-25T17:53:50Z</time>
      </trkpt>
      <trkpt lat="45.30862" lon="5.89071">
        <ele>908.44702148438</ele>
        <time>2017-10-25T17:53:54Z</time>
      </trkpt>
      <trkpt lat="45.30861" lon="5.89079">
        <ele>906.44702148438</ele>
        <time>2017-10-25T17:53:57Z</time>
      </trkpt>
      <trkpt lat="45.3086" lon="5.89085">
        <ele>904.44702148438</ele>
        <time>2017-10-25T17:54:00Z</time>
      </trkpt>
      <trkpt lat="45.30858" lon="5.89093">
        <ele>904.44702148438</ele>
        <time>2017-10-25T17:54:03Z</time>
      </trkpt>
      <trkpt lat="45.30856" lon="5.89099">
        <ele>902.44702148438</ele>
        <time>2017-10-25T17:54:06Z</time>
      </trkpt>
      <trkpt lat="45.30855" lon="5.89106">
        <ele>903.44702148438</ele>
        <time>2017-10-25T17:54:09Z</time>
      </trkpt>
      <trkpt lat="45.30853" lon="5.89113">
        <ele>901.44702148438</ele>
        <time>2017-10-25T17:54:13Z</time>
      </trkpt>
      <trkpt lat="45.30852" lon="5.89119">
        <ele>903.44702148438</ele>
        <time>2017-10-25T17:54:15Z</time>
      </trkpt>
      <trkpt lat="45.30849" lon="5.89127">
        <ele>901.44702148438</ele>
        <time>2017-10-25T17:54:20Z</time>
      </trkpt>
      <trkpt lat="45.30847" lon="5.89134">
        <ele>898.44702148438</ele>
        <time>2017-10-25T17:54:24Z</time>
      </trkpt>
      <trkpt lat="45.30843" lon="5.89138">
        <ele>894.44702148438</ele>
        <time>2017-10-25T17:54:31Z</time>
      </trkpt>
      <trkpt lat="45.30838" lon="5.89138">
        <ele>893.44702148438</ele>
        <time>2017-10-25T17:54:35Z</time>
      </trkpt>
      <trkpt lat="45.30836" lon="5.89131">
        <ele>892.44702148438</ele>
        <time>2017-10-25T17:54:39Z</time>
      </trkpt>
      <trkpt lat="45.30831" lon="5.89126">
        <ele>890.44702148438</ele>
        <time>2017-10-25T17:54:43Z</time>
      </trkpt>
      <trkpt lat="45.30828" lon="5.89121">
        <ele>887.44702148438</ele>
        <time>2017-10-25T17:54:48Z</time>
      </trkpt>
      <trkpt lat="45.30826" lon="5.89115">
        <ele>885.44702148438</ele>
        <time>2017-10-25T17:54:53Z</time>
      </trkpt>
      <trkpt lat="45.30823" lon="5.8911">
        <ele>885.44702148438</ele>
        <time>2017-10-25T17:54:57Z</time>
      </trkpt>
      <trkpt lat="45.3082" lon="5.89103">
        <ele>879.44702148438</ele>
        <time>2017-10-25T17:55:03Z</time>
      </trkpt>
      <trkpt lat="45.30819" lon="5.89096">
        <ele>877.44702148438</ele>
        <time>2017-10-25T17:55:08Z</time>
      </trkpt>
      <trkpt lat="45.30815" lon="5.8909">
        <ele>872.44702148438</ele>
        <time>2017-10-25T17:55:16Z</time>
      </trkpt>
      <trkpt lat="45.3081" lon="5.89087">
        <ele>872.44702148438</ele>
        <time>2017-10-25T17:55:22Z</time>
      </trkpt>
      <trkpt lat="45.30808" lon="5.8908">
        <ele>873.44702148438</ele>
        <time>2017-10-25T17:55:27Z</time>
      </trkpt>
      <trkpt lat="45.30805" lon="5.89075">
        <ele>872.44702148438</ele>
        <time>2017-10-25T17:55:32Z</time>
      </trkpt>
      <trkpt lat="45.30802" lon="5.8907">
        <ele>874.44702148438</ele>
        <time>2017-10-25T17:55:37Z</time>
      </trkpt>
      <trkpt lat="45.30798" lon="5.89063">
        <ele>872.44702148438</ele>
        <time>2017-10-25T17:55:46Z</time>
      </trkpt>
      <trkpt lat="45.30796" lon="5.89057">
        <ele>870.44702148438</ele>
        <time>2017-10-25T17:55:51Z</time>
      </trkpt>
      <trkpt lat="45.30794" lon="5.89051">
        <ele>870.44702148438</ele>
        <time>2017-10-25T17:55:58Z</time>
      </trkpt>
      <trkpt lat="45.3079" lon="5.89045">
        <ele>869.44702148438</ele>
        <time>2017-10-25T17:56:02Z</time>
      </trkpt>
      <trkpt lat="45.3079" lon="5.89038">
        <ele>863.44702148438</ele>
        <time>2017-10-25T17:56:08Z</time>
      </trkpt>
      <trkpt lat="45.30787" lon="5.89032">
        <ele>860.44702148438</ele>
        <time>2017-10-25T17:56:13Z</time>
      </trkpt>
      <trkpt lat="45.30784" lon="5.89026">
        <ele>858.44702148438</ele>
        <time>2017-10-25T17:56:17Z</time>
      </trkpt>
      <trkpt lat="45.3078" lon="5.89021">
        <ele>856.44702148438</ele>
        <time>2017-10-25T17:56:22Z</time>
      </trkpt>
      <trkpt lat="45.30777" lon="5.89013">
        <ele>857.44702148438</ele>
        <time>2017-10-25T17:56:26Z</time>
      </trkpt>
      <trkpt lat="45.30777" lon="5.89006">
        <ele>855.44702148438</ele>
        <time>2017-10-25T17:56:29Z</time>
      </trkpt>
      <trkpt lat="45.30774" lon="5.89001">
        <ele>855.44702148438</ele>
        <time>2017-10-25T17:56:33Z</time>
      </trkpt>
      <trkpt lat="45.3077" lon="5.88996">
        <ele>853.44702148438</ele>
        <time>2017-10-25T17:56:37Z</time>
      </trkpt>
      <trkpt lat="45.30767" lon="5.8899">
        <ele>852.44702148438</ele>
        <time>2017-10-25T17:56:40Z</time>
      </trkpt>
      <trkpt lat="45.30764" lon="5.88982">
        <ele>851.44702148438</ele>
        <time>2017-10-25T17:56:44Z</time>
      </trkpt>
      <trkpt lat="45.3076" lon="5.88979">
        <ele>851.44702148438</ele>
        <time>2017-10-25T17:56:49Z</time>
      </trkpt>
      <trkpt lat="45.30754" lon="5.88971">
        <ele>849.44702148438</ele>
        <time>2017-10-25T17:56:55Z</time>
      </trkpt>
      <trkpt lat="45.30753" lon="5.88963">
        <ele>848.44702148438</ele>
        <time>2017-10-25T17:56:57Z</time>
      </trkpt>
      <trkpt lat="45.3075" lon="5.88958">
        <ele>848.44702148438</ele>
        <time>2017-10-25T17:57:00Z</time>
      </trkpt>
      <trkpt lat="45.30747" lon="5.88952">
        <ele>853.44702148438</ele>
        <time>2017-10-25T17:57:04Z</time>
      </trkpt>
      <trkpt lat="45.30744" lon="5.88944">
        <ele>850.44702148438</ele>
        <time>2017-10-25T17:57:07Z</time>
      </trkpt>
      <trkpt lat="45.30743" lon="5.88937">
        <ele>849.44702148438</ele>
        <time>2017-10-25T17:57:10Z</time>
      </trkpt>
      <trkpt lat="45.3074" lon="5.8893">
        <ele>849.44702148438</ele>
        <time>2017-10-25T17:57:13Z</time>
      </trkpt>
      <trkpt lat="45.30737" lon="5.88923">
        <ele>850.44702148438</ele>
        <time>2017-10-25T17:57:16Z</time>
      </trkpt>
      <trkpt lat="45.30736" lon="5.88917">
        <ele>849.44702148438</ele>
        <time>2017-10-25T17:57:21Z</time>
      </trkpt>
      <trkpt lat="45.30736" lon="5.8891">
        <ele>848.44702148438</ele>
        <time>2017-10-25T17:57:33Z</time>
      </trkpt>
      <trkpt lat="45.30733" lon="5.88914">
        <ele>848.44702148438</ele>
        <time>2017-10-25T17:57:41Z</time>
      </trkpt>
      <trkpt lat="45.30731" lon="5.8892">
        <ele>846.44702148438</ele>
        <time>2017-10-25T17:57:54Z</time>
      </trkpt>
      <trkpt lat="45.30729" lon="5.88926">
        <ele>843.44702148438</ele>
        <time>2017-10-25T17:58:02Z</time>
      </trkpt>
      <trkpt lat="45.30722" lon="5.88921">
        <ele>843.44702148438</ele>
        <time>2017-10-25T17:58:06Z</time>
      </trkpt>
      <trkpt lat="45.30716" lon="5.88918">
        <ele>843.44702148438</ele>
        <time>2017-10-25T17:58:09Z</time>
      </trkpt>
      <trkpt lat="45.3071" lon="5.88912">
        <ele>843.44598388672</ele>
        <time>2017-10-25T17:58:17Z</time>
      </trkpt>
      <trkpt lat="45.30715" lon="5.88921">
        <ele>840.44702148438</ele>
        <time>2017-10-25T17:58:20Z</time>
      </trkpt>
      <trkpt lat="45.30721" lon="5.88938">
        <ele>833.44702148438</ele>
        <time>2017-10-25T17:58:26Z</time>
      </trkpt>
      <trkpt lat="45.30724" lon="5.88944">
        <ele>830.44702148438</ele>
        <time>2017-10-25T17:58:31Z</time>
      </trkpt>
      <trkpt lat="45.30723" lon="5.88951">
        <ele>828.44702148438</ele>
        <time>2017-10-25T17:58:37Z</time>
      </trkpt>
      <trkpt lat="45.30723" lon="5.88957">
        <ele>825.44702148438</ele>
        <time>2017-10-25T17:58:44Z</time>
      </trkpt>
      <trkpt lat="45.30726" lon="5.88962">
        <ele>822.44702148438</ele>
        <time>2017-10-25T17:58:54Z</time>
      </trkpt>
      <trkpt lat="45.30727" lon="5.8897">
        <ele>823.44702148438</ele>
        <time>2017-10-25T17:58:59Z</time>
      </trkpt>
      <trkpt lat="45.3073" lon="5.88975">
        <ele>823.44702148438</ele>
        <time>2017-10-25T17:59:02Z</time>
      </trkpt>
      <trkpt lat="45.30733" lon="5.8898">
        <ele>821.44702148438</ele>
        <time>2017-10-25T17:59:06Z</time>
      </trkpt>
      <trkpt lat="45.30735" lon="5.88989">
        <ele>820.44702148438</ele>
        <time>2017-10-25T17:59:09Z</time>
      </trkpt>
      <trkpt lat="45.30739" lon="5.88995">
        <ele>818.44702148438</ele>
        <time>2017-10-25T17:59:15Z</time>
      </trkpt>
      <trkpt lat="45.30741" lon="5.89001">
        <ele>817.44702148438</ele>
        <time>2017-10-25T17:59:19Z</time>
      </trkpt>
      <trkpt lat="45.30742" lon="5.89009">
        <ele>815.44702148438</ele>
        <time>2017-10-25T17:59:24Z</time>
      </trkpt>
      <trkpt lat="45.30745" lon="5.89016">
        <ele>814.44702148438</ele>
        <time>2017-10-25T17:59:29Z</time>
      </trkpt>
      <trkpt lat="45.30748" lon="5.89021">
        <ele>814.44702148438</ele>
        <time>2017-10-25T17:59:35Z</time>
      </trkpt>
      <trkpt lat="45.30751" lon="5.89029">
        <ele>813.44702148438</ele>
        <time>2017-10-25T17:59:41Z</time>
      </trkpt>
      <trkpt lat="45.30751" lon="5.89036">
        <ele>816.44702148438</ele>
        <time>2017-10-25T17:59:45Z</time>
      </trkpt>
      <trkpt lat="45.30753" lon="5.89042">
        <ele>816.44702148438</ele>
        <time>2017-10-25T17:59:49Z</time>
      </trkpt>
      <trkpt lat="45.30754" lon="5.89049">
        <ele>815.44702148438</ele>
        <time>2017-10-25T17:59:52Z</time>
      </trkpt>
      <trkpt lat="45.30756" lon="5.89055">
        <ele>816.44702148438</ele>
        <time>2017-10-25T17:59:56Z</time>
      </trkpt>
      <trkpt lat="45.30759" lon="5.89061">
        <ele>816.44702148438</ele>
        <time>2017-10-25T17:59:59Z</time>
      </trkpt>
      <trkpt lat="45.30762" lon="5.89067">
        <ele>815.44702148438</ele>
        <time>2017-10-25T18:00:03Z</time>
      </trkpt>
      <trkpt lat="45.30766" lon="5.89071">
        <ele>812.44702148438</ele>
        <time>2017-10-25T18:00:08Z</time>
      </trkpt>
      <trkpt lat="45.3077" lon="5.89079">
        <ele>809.44702148438</ele>
        <time>2017-10-25T18:00:13Z</time>
      </trkpt>
      <trkpt lat="45.30773" lon="5.89085">
        <ele>806.44702148438</ele>
        <time>2017-10-25T18:00:18Z</time>
      </trkpt>
      <trkpt lat="45.30775" lon="5.89092">
        <ele>807.44702148438</ele>
        <time>2017-10-25T18:00:21Z</time>
      </trkpt>
      <trkpt lat="45.30774" lon="5.891">
        <ele>805.44702148438</ele>
        <time>2017-10-25T18:00:27Z</time>
      </trkpt>
      <trkpt lat="45.30777" lon="5.89105">
        <ele>803.44702148438</ele>
        <time>2017-10-25T18:00:30Z</time>
      </trkpt>
      <trkpt lat="45.30781" lon="5.8911">
        <ele>799.44702148438</ele>
        <time>2017-10-25T18:00:34Z</time>
      </trkpt>
      <trkpt lat="45.30782" lon="5.8912">
        <ele>799.44702148438</ele>
        <time>2017-10-25T18:00:37Z</time>
      </trkpt>
      <trkpt lat="45.30784" lon="5.89128">
        <ele>796.44702148438</ele>
        <time>2017-10-25T18:00:41Z</time>
      </trkpt>
      <trkpt lat="45.30785" lon="5.89136">
        <ele>798.44702148438</ele>
        <time>2017-10-25T18:00:44Z</time>
      </trkpt>
      <trkpt lat="45.30786" lon="5.89142">
        <ele>799.44702148438</ele>
        <time>2017-10-25T18:00:47Z</time>
      </trkpt>
      <trkpt lat="45.30785" lon="5.89151">
        <ele>800.44702148438</ele>
        <time>2017-10-25T18:00:51Z</time>
      </trkpt>
      <trkpt lat="45.30788" lon="5.89158">
        <ele>743.44702148438</ele>
        <time>2017-10-25T18:01:01Z</time>
      </trkpt>
      <trkpt lat="45.30791" lon="5.89164">
        <ele>764.44702148438</ele>
        <time>2017-10-25T18:01:07Z</time>
      </trkpt>
      <trkpt lat="45.30787" lon="5.8917">
        <ele>765.44702148438</ele>
        <time>2017-10-25T18:01:12Z</time>
      </trkpt>
      <trkpt lat="45.30788" lon="5.89177">
        <ele>778.44702148438</ele>
        <time>2017-10-25T18:01:17Z</time>
      </trkpt>
      <trkpt lat="45.30788" lon="5.89183">
        <ele>778.44702148438</ele>
        <time>2017-10-25T18:01:22Z</time>
      </trkpt>
      <trkpt lat="45.30784" lon="5.89178">
        <ele>781.44702148438</ele>
        <time>2017-10-25T18:01:28Z</time>
      </trkpt>
      <trkpt lat="45.30781" lon="5.89172">
        <ele>782.44702148438</ele>
        <time>2017-10-25T18:01:34Z</time>
      </trkpt>
      <trkpt lat="45.30779" lon="5.89166">
        <ele>778.44702148438</ele>
        <time>2017-10-25T18:01:41Z</time>
      </trkpt>
      <trkpt lat="45.30777" lon="5.89157">
        <ele>772.44702148438</ele>
        <time>2017-10-25T18:01:46Z</time>
      </trkpt>
      <trkpt lat="45.30774" lon="5.89151">
        <ele>771.44702148438</ele>
        <time>2017-10-25T18:01:49Z</time>
      </trkpt>
      <trkpt lat="45.3077" lon="5.89149">
        <ele>770.44702148438</ele>
        <time>2017-10-25T18:01:55Z</time>
      </trkpt>
      <trkpt lat="45.30765" lon="5.89146">
        <ele>770.44702148438</ele>
        <time>2017-10-25T18:01:59Z</time>
      </trkpt>
      <trkpt lat="45.30763" lon="5.89138">
        <ele>765.44702148438</ele>
        <time>2017-10-25T18:02:04Z</time>
      </trkpt>
      <trkpt lat="45.3076" lon="5.89133">
        <ele>765.44702148438</ele>
        <time>2017-10-25T18:02:08Z</time>
      </trkpt>
      <trkpt lat="45.30756" lon="5.89129">
        <ele>765.44702148438</ele>
        <time>2017-10-25T18:02:10Z</time>
      </trkpt>
      <trkpt lat="45.30751" lon="5.89123">
        <ele>764.44702148438</ele>
        <time>2017-10-25T18:02:14Z</time>
      </trkpt>
      <trkpt lat="45.30747" lon="5.89119">
        <ele>763.44702148438</ele>
        <time>2017-10-25T18:02:17Z</time>
      </trkpt>
      <trkpt lat="45.30743" lon="5.89113">
        <ele>762.44702148438</ele>
        <time>2017-10-25T18:02:20Z</time>
      </trkpt>
      <trkpt lat="45.30738" lon="5.89108">
        <ele>762.44702148438</ele>
        <time>2017-10-25T18:02:24Z</time>
      </trkpt>
      <trkpt lat="45.30734" lon="5.89103">
        <ele>761.44702148438</ele>
        <time>2017-10-25T18:02:28Z</time>
      </trkpt>
      <trkpt lat="45.3073" lon="5.89101">
        <ele>761.44702148438</ele>
        <time>2017-10-25T18:02:33Z</time>
      </trkpt>
      <trkpt lat="45.30725" lon="5.891">
        <ele>761.44702148438</ele>
        <time>2017-10-25T18:02:35Z</time>
      </trkpt>
      <trkpt lat="45.3072" lon="5.89094">
        <ele>757.44702148438</ele>
        <time>2017-10-25T18:02:39Z</time>
      </trkpt>
      <trkpt lat="45.30715" lon="5.89092">
        <ele>755.44702148438</ele>
        <time>2017-10-25T18:02:45Z</time>
      </trkpt>
      <trkpt lat="45.30709" lon="5.89092">
        <ele>754.44702148438</ele>
        <time>2017-10-25T18:02:49Z</time>
      </trkpt>
      <trkpt lat="45.30705" lon="5.89091">
        <ele>755.44702148438</ele>
        <time>2017-10-25T18:02:54Z</time>
      </trkpt>
      <trkpt lat="45.307" lon="5.89087">
        <ele>751.44702148438</ele>
        <time>2017-10-25T18:02:58Z</time>
      </trkpt>
      <trkpt lat="45.30694" lon="5.89086">
        <ele>750.44702148438</ele>
        <time>2017-10-25T18:03:01Z</time>
      </trkpt>
      <trkpt lat="45.30688" lon="5.89081">
        <ele>747.44702148438</ele>
        <time>2017-10-25T18:03:07Z</time>
      </trkpt>
      <trkpt lat="45.30686" lon="5.89087">
        <ele>746.44702148438</ele>
        <time>2017-10-25T18:03:14Z</time>
      </trkpt>
      <trkpt lat="45.30687" lon="5.89094">
        <ele>743.44702148438</ele>
        <time>2017-10-25T18:03:19Z</time>
      </trkpt>
      <trkpt lat="45.30688" lon="5.89101">
        <ele>743.44702148438</ele>
        <time>2017-10-25T18:03:23Z</time>
      </trkpt>
      <trkpt lat="45.30688" lon="5.89107">
        <ele>739.44702148438</ele>
        <time>2017-10-25T18:03:29Z</time>
      </trkpt>
      <trkpt lat="45.3069" lon="5.89113">
        <ele>739.44702148438</ele>
        <time>2017-10-25T18:03:33Z</time>
      </trkpt>
      <trkpt lat="45.30691" lon="5.8912">
        <ele>738.44702148438</ele>
        <time>2017-10-25T18:03:38Z</time>
      </trkpt>
      <trkpt lat="45.30694" lon="5.89125">
        <ele>735.44702148438</ele>
        <time>2017-10-25T18:03:41Z</time>
      </trkpt>
      <trkpt lat="45.30695" lon="5.89133">
        <ele>733.44702148438</ele>
        <time>2017-10-25T18:03:45Z</time>
      </trkpt>
      <trkpt lat="45.30697" lon="5.89139">
        <ele>732.44702148438</ele>
        <time>2017-10-25T18:03:49Z</time>
      </trkpt>
      <trkpt lat="45.30698" lon="5.89146">
        <ele>733.44702148438</ele>
        <time>2017-10-25T18:03:53Z</time>
      </trkpt>
      <trkpt lat="45.30699" lon="5.89154">
        <ele>732.44702148438</ele>
        <time>2017-10-25T18:03:58Z</time>
      </trkpt>
      <trkpt lat="45.30699" lon="5.8916">
        <ele>728.44702148438</ele>
        <time>2017-10-25T18:04:02Z</time>
      </trkpt>
      <trkpt lat="45.30701" lon="5.89167">
        <ele>727.44702148438</ele>
        <time>2017-10-25T18:04:06Z</time>
      </trkpt>
      <trkpt lat="45.30702" lon="5.89174">
        <ele>726.44702148438</ele>
        <time>2017-10-25T18:04:10Z</time>
      </trkpt>
      <trkpt lat="45.30702" lon="5.89181">
        <ele>724.44702148438</ele>
        <time>2017-10-25T18:04:15Z</time>
      </trkpt>
      <trkpt lat="45.30704" lon="5.89186">
        <ele>720.44702148438</ele>
        <time>2017-10-25T18:04:20Z</time>
      </trkpt>
      <trkpt lat="45.30707" lon="5.89192">
        <ele>715.44702148438</ele>
        <time>2017-10-25T18:04:26Z</time>
      </trkpt>
      <trkpt lat="45.30705" lon="5.89199">
        <ele>709.44702148438</ele>
        <time>2017-10-25T18:04:31Z</time>
      </trkpt>
      <trkpt lat="45.30705" lon="5.89205">
        <ele>710.44702148438</ele>
        <time>2017-10-25T18:04:34Z</time>
      </trkpt>
      <trkpt lat="45.30704" lon="5.89213">
        <ele>708.44702148438</ele>
        <time>2017-10-25T18:04:38Z</time>
      </trkpt>
      <trkpt lat="45.30702" lon="5.8922">
        <ele>709.44702148438</ele>
        <time>2017-10-25T18:04:41Z</time>
      </trkpt>
      <trkpt lat="45.30703" lon="5.89228">
        <ele>709.44702148438</ele>
        <time>2017-10-25T18:04:45Z</time>
      </trkpt>
      <trkpt lat="45.30706" lon="5.89235">
        <ele>707.44702148438</ele>
        <time>2017-10-25T18:04:49Z</time>
      </trkpt>
      <trkpt lat="45.30707" lon="5.89242">
        <ele>706.44702148438</ele>
        <time>2017-10-25T18:04:54Z</time>
      </trkpt>
      <trkpt lat="45.30706" lon="5.89249">
        <ele>706.44702148438</ele>
        <time>2017-10-25T18:04:57Z</time>
      </trkpt>
      <trkpt lat="45.30706" lon="5.89257">
        <ele>705.44702148438</ele>
        <time>2017-10-25T18:05:01Z</time>
      </trkpt>
      <trkpt lat="45.30706" lon="5.89265">
        <ele>708.44702148438</ele>
        <time>2017-10-25T18:05:04Z</time>
      </trkpt>
      <trkpt lat="45.30706" lon="5.89272">
        <ele>703.44702148438</ele>
        <time>2017-10-25T18:05:10Z</time>
      </trkpt>
      <trkpt lat="45.30703" lon="5.89278">
        <ele>702.44702148438</ele>
        <time>2017-10-25T18:05:13Z</time>
      </trkpt>
      <trkpt lat="45.30704" lon="5.89284">
        <ele>697.44702148438</ele>
        <time>2017-10-25T18:05:19Z</time>
      </trkpt>
      <trkpt lat="45.30703" lon="5.89293">
        <ele>694.44702148438</ele>
        <time>2017-10-25T18:05:26Z</time>
      </trkpt>
      <trkpt lat="45.30702" lon="5.893">
        <ele>693.44702148438</ele>
        <time>2017-10-25T18:05:30Z</time>
      </trkpt>
      <trkpt lat="45.30702" lon="5.8931">
        <ele>692.44702148438</ele>
        <time>2017-10-25T18:05:34Z</time>
      </trkpt>
      <trkpt lat="45.30702" lon="5.89317">
        <ele>691.44702148438</ele>
        <time>2017-10-25T18:05:38Z</time>
      </trkpt>
      <trkpt lat="45.30702" lon="5.89324">
        <ele>691.44702148438</ele>
        <time>2017-10-25T18:05:42Z</time>
      </trkpt>
      <trkpt lat="45.30702" lon="5.89331">
        <ele>689.44702148438</ele>
        <time>2017-10-25T18:05:46Z</time>
      </trkpt>
      <trkpt lat="45.30703" lon="5.89338">
        <ele>687.44702148438</ele>
        <time>2017-10-25T18:05:53Z</time>
      </trkpt>
      <trkpt lat="45.30705" lon="5.89345">
        <ele>760.44702148438</ele>
        <time>2017-10-25T18:05:57Z</time>
      </trkpt>
      <trkpt lat="45.30706" lon="5.89352">
        <ele>711.44702148438</ele>
        <time>2017-10-25T18:06:01Z</time>
      </trkpt>
      <trkpt lat="45.30701" lon="5.89353">
        <ele>683.44702148438</ele>
        <time>2017-10-25T18:06:13Z</time>
      </trkpt>
      <trkpt lat="45.30697" lon="5.89351">
        <ele>681.44702148438</ele>
        <time>2017-10-25T18:06:17Z</time>
      </trkpt>
      <trkpt lat="45.30692" lon="5.89346">
        <ele>679.44702148438</ele>
        <time>2017-10-25T18:06:24Z</time>
      </trkpt>
      <trkpt lat="45.30686" lon="5.89342">
        <ele>676.44702148438</ele>
        <time>2017-10-25T18:06:36Z</time>
      </trkpt>
      <trkpt lat="45.30683" lon="5.89337">
        <ele>674.44702148438</ele>
        <time>2017-10-25T18:06:39Z</time>
      </trkpt>
      <trkpt lat="45.30678" lon="5.89338">
        <ele>672.44702148438</ele>
        <time>2017-10-25T18:06:43Z</time>
      </trkpt>
      <trkpt lat="45.30676" lon="5.89345">
        <ele>671.44702148438</ele>
        <time>2017-10-25T18:06:47Z</time>
      </trkpt>
      <trkpt lat="45.30676" lon="5.89353">
        <ele>670.44702148438</ele>
        <time>2017-10-25T18:06:52Z</time>
      </trkpt>
      <trkpt lat="45.30674" lon="5.89358">
        <ele>666.44702148438</ele>
        <time>2017-10-25T18:07:01Z</time>
      </trkpt>
      <trkpt lat="45.3067" lon="5.89353">
        <ele>661.44702148438</ele>
        <time>2017-10-25T18:07:08Z</time>
      </trkpt>
      <trkpt lat="45.30665" lon="5.8935">
        <ele>660.44702148438</ele>
        <time>2017-10-25T18:07:13Z</time>
      </trkpt>
      <trkpt lat="45.30661" lon="5.89354">
        <ele>656.44702148438</ele>
        <time>2017-10-25T18:07:24Z</time>
      </trkpt>
      <trkpt lat="45.30658" lon="5.8936">
        <ele>651.44702148438</ele>
        <time>2017-10-25T18:07:33Z</time>
      </trkpt>
      <trkpt lat="45.30655" lon="5.89355">
        <ele>651.44702148438</ele>
        <time>2017-10-25T18:07:38Z</time>
      </trkpt>
      <trkpt lat="45.3065" lon="5.89351">
        <ele>651.44702148438</ele>
        <time>2017-10-25T18:07:44Z</time>
      </trkpt>
      <trkpt lat="45.30646" lon="5.89346">
        <ele>649.44702148438</ele>
        <time>2017-10-25T18:07:48Z</time>
      </trkpt>
      <trkpt lat="45.30642" lon="5.89342">
        <ele>648.44702148438</ele>
        <time>2017-10-25T18:07:51Z</time>
      </trkpt>
      <trkpt lat="45.30638" lon="5.89337">
        <ele>647.44702148438</ele>
        <time>2017-10-25T18:07:55Z</time>
      </trkpt>
      <trkpt lat="45.30634" lon="5.89332">
        <ele>645.44702148438</ele>
        <time>2017-10-25T18:08:00Z</time>
      </trkpt>
      <trkpt lat="45.30631" lon="5.89328">
        <ele>790.44702148438</ele>
        <time>2017-10-25T18:08:04Z</time>
      </trkpt>
      <trkpt lat="45.30626" lon="5.89323">
        <ele>708.44702148438</ele>
        <time>2017-10-25T18:08:08Z</time>
      </trkpt>
      <trkpt lat="45.30625" lon="5.8933">
        <ele>641.44702148438</ele>
        <time>2017-10-25T18:08:19Z</time>
      </trkpt>
      <trkpt lat="45.30622" lon="5.89337">
        <ele>633.44702148438</ele>
        <time>2017-10-25T18:08:27Z</time>
      </trkpt>
      <trkpt lat="45.30622" lon="5.89344">
        <ele>628.44702148438</ele>
        <time>2017-10-25T18:08:34Z</time>
      </trkpt>
      <trkpt lat="45.3062" lon="5.8935">
        <ele>628.44702148438</ele>
        <time>2017-10-25T18:08:44Z</time>
      </trkpt>
      <trkpt lat="45.30613" lon="5.89347">
        <ele>627.44702148438</ele>
        <time>2017-10-25T18:08:52Z</time>
      </trkpt>
      <trkpt lat="45.30609" lon="5.89352">
        <ele>624.44702148438</ele>
        <time>2017-10-25T18:09:01Z</time>
      </trkpt>
      <trkpt lat="45.30609" lon="5.89358">
        <ele>623.44702148438</ele>
        <time>2017-10-25T18:09:05Z</time>
      </trkpt>
      <trkpt lat="45.30607" lon="5.89365">
        <ele>622.44702148438</ele>
        <time>2017-10-25T18:09:09Z</time>
      </trkpt>
      <trkpt lat="45.30606" lon="5.89372">
        <ele>620.44702148438</ele>
        <time>2017-10-25T18:09:13Z</time>
      </trkpt>
      <trkpt lat="45.30601" lon="5.89375">
        <ele>616.44702148438</ele>
        <time>2017-10-25T18:09:17Z</time>
      </trkpt>
      <trkpt lat="45.30602" lon="5.89382">
        <ele>613.44702148438</ele>
        <time>2017-10-25T18:09:25Z</time>
      </trkpt>
      <trkpt lat="45.30606" lon="5.89387">
        <ele>611.44702148438</ele>
        <time>2017-10-25T18:09:35Z</time>
      </trkpt>
      <trkpt lat="45.30607" lon="5.89394">
        <ele>610.44702148438</ele>
        <time>2017-10-25T18:09:42Z</time>
      </trkpt>
      <trkpt lat="45.30606" lon="5.89401">
        <ele>609.44702148438</ele>
        <time>2017-10-25T18:09:49Z</time>
      </trkpt>
      <trkpt lat="45.30603" lon="5.89406">
        <ele>608.44702148438</ele>
        <time>2017-10-25T18:09:54Z</time>
      </trkpt>
      <trkpt lat="45.30601" lon="5.89413">
        <ele>609.44702148438</ele>
        <time>2017-10-25T18:09:58Z</time>
      </trkpt>
      <trkpt lat="45.30597" lon="5.89419">
        <ele>605.44702148438</ele>
        <time>2017-10-25T18:10:06Z</time>
      </trkpt>
      <trkpt lat="45.30592" lon="5.89422">
        <ele>602.44702148438</ele>
        <time>2017-10-25T18:10:13Z</time>
      </trkpt>
      <trkpt lat="45.30588" lon="5.89426">
        <ele>601.44702148438</ele>
        <time>2017-10-25T18:10:20Z</time>
      </trkpt>
      <trkpt lat="45.30588" lon="5.89433">
        <ele>602.44702148438</ele>
        <time>2017-10-25T18:10:25Z</time>
      </trkpt>
      <trkpt lat="45.30585" lon="5.89439">
        <ele>602.44702148438</ele>
        <time>2017-10-25T18:10:29Z</time>
      </trkpt>
      <trkpt lat="45.30581" lon="5.89439">
        <ele>600.44702148438</ele>
        <time>2017-10-25T18:10:37Z</time>
      </trkpt>
      <trkpt lat="45.30578" lon="5.89433">
        <ele>597.44702148438</ele>
        <time>2017-10-25T18:10:45Z</time>
      </trkpt>
      <trkpt lat="45.30574" lon="5.89429">
        <ele>593.44702148438</ele>
        <time>2017-10-25T18:10:58Z</time>
      </trkpt>
      <trkpt lat="45.30581" lon="5.89426">
        <ele>589.44702148438</ele>
        <time>2017-10-25T18:11:05Z</time>
      </trkpt>
      <trkpt lat="45.30578" lon="5.89419">
        <ele>592.44702148438</ele>
        <time>2017-10-25T18:11:09Z</time>
      </trkpt>
      <trkpt lat="45.30575" lon="5.89413">
        <ele>568.44702148438</ele>
        <time>2017-10-25T18:11:17Z</time>
      </trkpt>
      <trkpt lat="45.30572" lon="5.89408">
        <ele>579.44702148438</ele>
        <time>2017-10-25T18:11:21Z</time>
      </trkpt>
      <trkpt lat="45.30568" lon="5.89403">
        <ele>580.44702148438</ele>
        <time>2017-10-25T18:11:24Z</time>
      </trkpt>
      <trkpt lat="45.30565" lon="5.89398">
        <ele>581.44702148438</ele>
        <time>2017-10-25T18:11:27Z</time>
      </trkpt>
      <trkpt lat="45.30562" lon="5.89393">
        <ele>581.44702148438</ele>
        <time>2017-10-25T18:11:33Z</time>
      </trkpt>
      <trkpt lat="45.30559" lon="5.89389">
        <ele>581.44702148438</ele>
        <time>2017-10-25T18:11:39Z</time>
      </trkpt>
      <trkpt lat="45.30559" lon="5.89382">
        <ele>577.44702148438</ele>
        <time>2017-10-25T18:11:50Z</time>
      </trkpt>
      <trkpt lat="45.3056" lon="5.89376">
        <ele>573.44702148438</ele>
        <time>2017-10-25T18:11:59Z</time>
      </trkpt>
      <trkpt lat="45.30557" lon="5.89371">
        <ele>574.44702148438</ele>
        <time>2017-10-25T18:12:04Z</time>
      </trkpt>
      <trkpt lat="45.30555" lon="5.89365">
        <ele>571.44702148438</ele>
        <time>2017-10-25T18:12:07Z</time>
      </trkpt>
      <trkpt lat="45.3055" lon="5.8936">
        <ele>572.44702148438</ele>
        <time>2017-10-25T18:12:13Z</time>
      </trkpt>
      <trkpt lat="45.30548" lon="5.89353">
        <ele>569.44702148438</ele>
        <time>2017-10-25T18:12:22Z</time>
      </trkpt>
      <trkpt lat="45.30544" lon="5.89349">
        <ele>569.44702148438</ele>
        <time>2017-10-25T18:12:28Z</time>
      </trkpt>
      <trkpt lat="45.30542" lon="5.89344">
        <ele>567.44702148438</ele>
        <time>2017-10-25T18:12:35Z</time>
      </trkpt>
      <trkpt lat="45.3054" lon="5.89338">
        <ele>567.44702148438</ele>
        <time>2017-10-25T18:12:43Z</time>
      </trkpt>
      <trkpt lat="45.30538" lon="5.89332">
        <ele>566.44702148438</ele>
        <time>2017-10-25T18:12:50Z</time>
      </trkpt>
      <trkpt lat="45.30535" lon="5.89326">
        <ele>563.44702148438</ele>
        <time>2017-10-25T18:12:56Z</time>
      </trkpt>
      <trkpt lat="45.30532" lon="5.89319">
        <ele>562.44702148438</ele>
        <time>2017-10-25T18:13:01Z</time>
      </trkpt>
      <trkpt lat="45.30529" lon="5.89315">
        <ele>559.44702148438</ele>
        <time>2017-10-25T18:13:09Z</time>
      </trkpt>
      <trkpt lat="45.30528" lon="5.89308">
        <ele>556.44702148438</ele>
        <time>2017-10-25T18:13:13Z</time>
      </trkpt>
      <trkpt lat="45.30525" lon="5.89302">
        <ele>554.44702148438</ele>
        <time>2017-10-25T18:13:22Z</time>
      </trkpt>
      <trkpt lat="45.30522" lon="5.89296">
        <ele>552.44702148438</ele>
        <time>2017-10-25T18:13:30Z</time>
      </trkpt>
      <trkpt lat="45.30519" lon="5.89289">
        <ele>549.44702148438</ele>
        <time>2017-10-25T18:13:37Z</time>
      </trkpt>
      <trkpt lat="45.30514" lon="5.89283">
        <ele>551.44702148438</ele>
        <time>2017-10-25T18:13:43Z</time>
      </trkpt>
      <trkpt lat="45.30512" lon="5.89275">
        <ele>550.44702148438</ele>
        <time>2017-10-25T18:13:48Z</time>
      </trkpt>
      <trkpt lat="45.30513" lon="5.89268">
        <ele>549.44702148438</ele>
        <time>2017-10-25T18:13:52Z</time>
      </trkpt>
      <trkpt lat="45.30508" lon="5.89266">
        <ele>548.44702148438</ele>
        <time>2017-10-25T18:14:01Z</time>
      </trkpt>
      <trkpt lat="45.30504" lon="5.89263">
        <ele>546.44702148438</ele>
        <time>2017-10-25T18:14:07Z</time>
      </trkpt>
      <trkpt lat="45.30499" lon="5.8926">
        <ele>541.44702148438</ele>
        <time>2017-10-25T18:14:17Z</time>
      </trkpt>
      <trkpt lat="45.30495" lon="5.89262">
        <ele>542.44702148438</ele>
        <time>2017-10-25T18:14:21Z</time>
      </trkpt>
      <trkpt lat="45.3049" lon="5.89258">
        <ele>539.44702148438</ele>
        <time>2017-10-25T18:14:30Z</time>
      </trkpt>
      <trkpt lat="45.30484" lon="5.89254">
        <ele>533.44598388672</ele>
        <time>2017-10-25T18:14:36Z</time>
      </trkpt>
      <trkpt lat="45.30479" lon="5.89253">
        <ele>532.44598388672</ele>
        <time>2017-10-25T18:14:41Z</time>
      </trkpt>
      <trkpt lat="45.30474" lon="5.8925">
        <ele>531.44598388672</ele>
        <time>2017-10-25T18:14:47Z</time>
      </trkpt>
      <trkpt lat="45.3047" lon="5.89243">
        <ele>530.44598388672</ele>
        <time>2017-10-25T18:14:54Z</time>
      </trkpt>
      <trkpt lat="45.30468" lon="5.89237">
        <ele>525.44598388672</ele>
        <time>2017-10-25T18:14:57Z</time>
      </trkpt>
      <trkpt lat="45.30464" lon="5.89232">
        <ele>522.44598388672</ele>
        <time>2017-10-25T18:15:01Z</time>
      </trkpt>
      <trkpt lat="45.30461" lon="5.89228">
        <ele>518.44598388672</ele>
        <time>2017-10-25T18:15:05Z</time>
      </trkpt>
      <trkpt lat="45.30456" lon="5.89224">
        <ele>519.44598388672</ele>
        <time>2017-10-25T18:15:09Z</time>
      </trkpt>
      <trkpt lat="45.30451" lon="5.89222">
        <ele>521.44598388672</ele>
        <time>2017-10-25T18:15:12Z</time>
      </trkpt>
      <trkpt lat="45.30447" lon="5.89218">
        <ele>521.44598388672</ele>
        <time>2017-10-25T18:15:16Z</time>
      </trkpt>
      <trkpt lat="45.30444" lon="5.89212">
        <ele>517.44598388672</ele>
        <time>2017-10-25T18:15:23Z</time>
      </trkpt>
      <trkpt lat="45.3044" lon="5.89205">
        <ele>513.44598388672</ele>
        <time>2017-10-25T18:15:27Z</time>
      </trkpt>
      <trkpt lat="45.30436" lon="5.89203">
        <ele>515.44598388672</ele>
        <time>2017-10-25T18:15:30Z</time>
      </trkpt>
      <trkpt lat="45.30431" lon="5.89199">
        <ele>514.44598388672</ele>
        <time>2017-10-25T18:15:33Z</time>
      </trkpt>
      <trkpt lat="45.30427" lon="5.89195">
        <ele>514.44598388672</ele>
        <time>2017-10-25T18:15:37Z</time>
      </trkpt>
      <trkpt lat="45.30424" lon="5.89189">
        <ele>511.4460144043</ele>
        <time>2017-10-25T18:15:42Z</time>
      </trkpt>
      <trkpt lat="45.30419" lon="5.89186">
        <ele>510.4460144043</ele>
        <time>2017-10-25T18:15:48Z</time>
      </trkpt>
      <trkpt lat="45.30418" lon="5.8918">
        <ele>506.4460144043</ele>
        <time>2017-10-25T18:15:58Z</time>
      </trkpt>
      <trkpt lat="45.30414" lon="5.89177">
        <ele>506.4460144043</ele>
        <time>2017-10-25T18:16:13Z</time>
      </trkpt>
      <trkpt lat="45.30409" lon="5.89175">
        <ele>506.4460144043</ele>
        <time>2017-10-25T18:16:23Z</time>
      </trkpt>
      <trkpt lat="45.30405" lon="5.89171">
        <ele>509.4460144043</ele>
        <time>2017-10-25T18:16:27Z</time>
      </trkpt>
      <trkpt lat="45.30401" lon="5.89167">
        <ele>510.4460144043</ele>
        <time>2017-10-25T18:16:31Z</time>
      </trkpt>
      <trkpt lat="45.30396" lon="5.89167">
        <ele>510.4460144043</ele>
        <time>2017-10-25T18:16:39Z</time>
      </trkpt>
      <trkpt lat="45.30392" lon="5.89164">
        <ele>509.4460144043</ele>
        <time>2017-10-25T18:16:43Z</time>
      </trkpt>
      <trkpt lat="45.30387" lon="5.89163">
        <ele>510.4460144043</ele>
        <time>2017-10-25T18:16:53Z</time>
      </trkpt>
      <trkpt lat="45.30382" lon="5.89164">
        <ele>508.4460144043</ele>
        <time>2017-10-25T18:17:00Z</time>
      </trkpt>
      <trkpt lat="45.30378" lon="5.89168">
        <ele>506.4460144043</ele>
        <time>2017-10-25T18:17:08Z</time>
      </trkpt>
      <trkpt lat="45.30374" lon="5.89171">
        <ele>504.4460144043</ele>
        <time>2017-10-25T18:17:14Z</time>
      </trkpt>
      <trkpt lat="45.30369" lon="5.89178">
        <ele>502.4460144043</ele>
        <time>2017-10-25T18:17:20Z</time>
      </trkpt>
      <trkpt lat="45.30363" lon="5.89178">
        <ele>497.4460144043</ele>
        <time>2017-10-25T18:17:25Z</time>
      </trkpt>
      <trkpt lat="45.30362" lon="5.89185">
        <ele>496.4460144043</ele>
        <time>2017-10-25T18:17:29Z</time>
      </trkpt>
      <trkpt lat="45.30361" lon="5.89193">
        <ele>497.4460144043</ele>
        <time>2017-10-25T18:17:32Z</time>
      </trkpt>
      <trkpt lat="45.30356" lon="5.89197">
        <ele>495.4460144043</ele>
        <time>2017-10-25T18:17:37Z</time>
      </trkpt>
      <trkpt lat="45.30353" lon="5.89203">
        <ele>493.4460144043</ele>
        <time>2017-10-25T18:17:41Z</time>
      </trkpt>
      <trkpt lat="45.30349" lon="5.89205">
        <ele>493.4460144043</ele>
        <time>2017-10-25T18:17:44Z</time>
      </trkpt>
      <trkpt lat="45.30346" lon="5.8921">
        <ele>493.4460144043</ele>
        <time>2017-10-25T18:17:47Z</time>
      </trkpt>
      <trkpt lat="45.30343" lon="5.89216">
        <ele>490.4460144043</ele>
        <time>2017-10-25T18:17:51Z</time>
      </trkpt>
      <trkpt lat="45.30338" lon="5.89221">
        <ele>487.4460144043</ele>
        <time>2017-10-25T18:17:57Z</time>
      </trkpt>
      <trkpt lat="45.30333" lon="5.89223">
        <ele>485.4460144043</ele>
        <time>2017-10-25T18:18:01Z</time>
      </trkpt>
      <trkpt lat="45.30329" lon="5.89227">
        <ele>482.4460144043</ele>
        <time>2017-10-25T18:18:07Z</time>
      </trkpt>
      <trkpt lat="45.30327" lon="5.89235">
        <ele>480.4460144043</ele>
        <time>2017-10-25T18:18:11Z</time>
      </trkpt>
      <trkpt lat="45.30325" lon="5.89241">
        <ele>479.4460144043</ele>
        <time>2017-10-25T18:18:15Z</time>
      </trkpt>
      <trkpt lat="45.30321" lon="5.89245">
        <ele>477.4460144043</ele>
        <time>2017-10-25T18:18:19Z</time>
      </trkpt>
      <trkpt lat="45.30319" lon="5.89253">
        <ele>472.4460144043</ele>
        <time>2017-10-25T18:18:26Z</time>
      </trkpt>
      <trkpt lat="45.30316" lon="5.89258">
        <ele>472.4460144043</ele>
        <time>2017-10-25T18:18:28Z</time>
      </trkpt>
      <trkpt lat="45.30314" lon="5.89264">
        <ele>472.4460144043</ele>
        <time>2017-10-25T18:18:31Z</time>
      </trkpt>
      <trkpt lat="45.30311" lon="5.89268">
        <ele>470.4460144043</ele>
        <time>2017-10-25T18:18:35Z</time>
      </trkpt>
      <trkpt lat="45.30309" lon="5.89275">
        <ele>469.4460144043</ele>
        <time>2017-10-25T18:18:38Z</time>
      </trkpt>
      <trkpt lat="45.30305" lon="5.89278">
        <ele>466.4460144043</ele>
        <time>2017-10-25T18:18:41Z</time>
      </trkpt>
      <trkpt lat="45.30304" lon="5.89286">
        <ele>466.4460144043</ele>
        <time>2017-10-25T18:18:44Z</time>
      </trkpt>
      <trkpt lat="45.30303" lon="5.89293">
        <ele>461.4460144043</ele>
        <time>2017-10-25T18:18:50Z</time>
      </trkpt>
      <trkpt lat="45.30301" lon="5.893">
        <ele>461.4460144043</ele>
        <time>2017-10-25T18:18:53Z</time>
      </trkpt>
      <trkpt lat="45.30302" lon="5.89311">
        <ele>463.4460144043</ele>
        <time>2017-10-25T18:18:57Z</time>
      </trkpt>
      <trkpt lat="45.303" lon="5.89317">
        <ele>461.4460144043</ele>
        <time>2017-10-25T18:19:03Z</time>
      </trkpt>
      <trkpt lat="45.30298" lon="5.89323">
        <ele>458.4460144043</ele>
        <time>2017-10-25T18:19:08Z</time>
      </trkpt>
      <trkpt lat="45.30294" lon="5.89329">
        <ele>458.4460144043</ele>
        <time>2017-10-25T18:19:13Z</time>
      </trkpt>
      <trkpt lat="45.30289" lon="5.89329">
        <ele>453.4460144043</ele>
        <time>2017-10-25T18:19:20Z</time>
      </trkpt>
      <trkpt lat="45.30285" lon="5.89332">
        <ele>453.4460144043</ele>
        <time>2017-10-25T18:19:26Z</time>
      </trkpt>
      <trkpt lat="45.30281" lon="5.89336">
        <ele>451.4460144043</ele>
        <time>2017-10-25T18:19:31Z</time>
      </trkpt>
      <trkpt lat="45.30277" lon="5.89341">
        <ele>452.4460144043</ele>
        <time>2017-10-25T18:19:35Z</time>
      </trkpt>
      <trkpt lat="45.30273" lon="5.89344">
        <ele>451.4460144043</ele>
        <time>2017-10-25T18:19:40Z</time>
      </trkpt>
      <trkpt lat="45.30268" lon="5.89343">
        <ele>444.4460144043</ele>
        <time>2017-10-25T18:19:47Z</time>
      </trkpt>
      <trkpt lat="45.30264" lon="5.89346">
        <ele>440.4460144043</ele>
        <time>2017-10-25T18:19:51Z</time>
      </trkpt>
      <trkpt lat="45.30259" lon="5.8935">
        <ele>438.4460144043</ele>
        <time>2017-10-25T18:19:59Z</time>
      </trkpt>
      <trkpt lat="45.30254" lon="5.89354">
        <ele>438.4460144043</ele>
        <time>2017-10-25T18:20:10Z</time>
      </trkpt>
      <trkpt lat="45.30249" lon="5.89355">
        <ele>436.4460144043</ele>
        <time>2017-10-25T18:20:12Z</time>
      </trkpt>
      <trkpt lat="45.30245" lon="5.8936">
        <ele>433.4460144043</ele>
        <time>2017-10-25T18:20:16Z</time>
      </trkpt>
      <trkpt lat="45.3024" lon="5.89362">
        <ele>435.4460144043</ele>
        <time>2017-10-25T18:20:19Z</time>
      </trkpt>
      <trkpt lat="45.30234" lon="5.89362">
        <ele>432.4460144043</ele>
        <time>2017-10-25T18:20:24Z</time>
      </trkpt>
      <trkpt lat="45.30229" lon="5.89363">
        <ele>428.4460144043</ele>
        <time>2017-10-25T18:20:30Z</time>
      </trkpt>
      <trkpt lat="45.30225" lon="5.89364">
        <ele>424.4460144043</ele>
        <time>2017-10-25T18:20:37Z</time>
      </trkpt>
      <trkpt lat="45.3022" lon="5.89367">
        <ele>425.4460144043</ele>
        <time>2017-10-25T18:20:41Z</time>
      </trkpt>
      <trkpt lat="45.30215" lon="5.89368">
        <ele>426.4460144043</ele>
        <time>2017-10-25T18:20:46Z</time>
      </trkpt>
      <trkpt lat="45.30209" lon="5.89369">
        <ele>428.4460144043</ele>
        <time>2017-10-25T18:20:53Z</time>
      </trkpt>
      <trkpt lat="45.30203" lon="5.89369">
        <ele>426.4460144043</ele>
        <time>2017-10-25T18:20:56Z</time>
      </trkpt>
      <trkpt lat="45.30198" lon="5.8937">
        <ele>423.4460144043</ele>
        <time>2017-10-25T18:21:00Z</time>
      </trkpt>
      <trkpt lat="45.30192" lon="5.89371">
        <ele>419.4460144043</ele>
        <time>2017-10-25T18:21:04Z</time>
      </trkpt>
      <trkpt lat="45.30187" lon="5.89369">
        <ele>417.4460144043</ele>
        <time>2017-10-25T18:21:07Z</time>
      </trkpt>
      <trkpt lat="45.30182" lon="5.89369">
        <ele>415.4460144043</ele>
        <time>2017-10-25T18:21:12Z</time>
      </trkpt>
      <trkpt lat="45.30175" lon="5.89368">
        <ele>413.4460144043</ele>
        <time>2017-10-25T18:21:16Z</time>
      </trkpt>
      <trkpt lat="45.30172" lon="5.89365">
        <ele>411.4460144043</ele>
        <time>2017-10-25T18:21:20Z</time>
      </trkpt>
      <trkpt lat="45.30168" lon="5.89361">
        <ele>410.4460144043</ele>
        <time>2017-10-25T18:21:23Z</time>
      </trkpt>
      <trkpt lat="45.30164" lon="5.89358">
        <ele>408.4460144043</ele>
        <time>2017-10-25T18:21:27Z</time>
      </trkpt>
      <trkpt lat="45.30159" lon="5.89359">
        <ele>406.4460144043</ele>
        <time>2017-10-25T18:21:33Z</time>
      </trkpt>
      <trkpt lat="45.30154" lon="5.89357">
        <ele>405.4460144043</ele>
        <time>2017-10-25T18:21:36Z</time>
      </trkpt>
      <trkpt lat="45.30149" lon="5.89359">
        <ele>406.4460144043</ele>
        <time>2017-10-25T18:21:40Z</time>
      </trkpt>
      <trkpt lat="45.30144" lon="5.8936">
        <ele>407.4460144043</ele>
        <time>2017-10-25T18:21:44Z</time>
      </trkpt>
      <trkpt lat="45.30138" lon="5.89359">
        <ele>406.4460144043</ele>
        <time>2017-10-25T18:21:47Z</time>
      </trkpt>
      <trkpt lat="45.30133" lon="5.8936">
        <ele>404.4460144043</ele>
        <time>2017-10-25T18:21:50Z</time>
      </trkpt>
      <trkpt lat="45.30127" lon="5.89359">
        <ele>401.4460144043</ele>
        <time>2017-10-25T18:21:55Z</time>
      </trkpt>
      <trkpt lat="45.30122" lon="5.89359">
        <ele>399.4460144043</ele>
        <time>2017-10-25T18:21:59Z</time>
      </trkpt>
      <trkpt lat="45.30116" lon="5.89359">
        <ele>397.4460144043</ele>
        <time>2017-10-25T18:22:02Z</time>
      </trkpt>
      <trkpt lat="45.30111" lon="5.89359">
        <ele>397.4460144043</ele>
        <time>2017-10-25T18:22:06Z</time>
      </trkpt>
      <trkpt lat="45.30106" lon="5.89361">
        <ele>397.4460144043</ele>
        <time>2017-10-25T18:22:10Z</time>
      </trkpt>
      <trkpt lat="45.301" lon="5.89363">
        <ele>395.4460144043</ele>
        <time>2017-10-25T18:22:14Z</time>
      </trkpt>
      <trkpt lat="45.30094" lon="5.89363">
        <ele>396.4460144043</ele>
        <time>2017-10-25T18:22:18Z</time>
      </trkpt>
      <trkpt lat="45.30089" lon="5.8936">
        <ele>392.4460144043</ele>
        <time>2017-10-25T18:22:23Z</time>
      </trkpt>
      <trkpt lat="45.30084" lon="5.89359">
        <ele>392.4460144043</ele>
        <time>2017-10-25T18:22:27Z</time>
      </trkpt>
      <trkpt lat="45.30078" lon="5.8936">
        <ele>391.4460144043</ele>
        <time>2017-10-25T18:22:32Z</time>
      </trkpt>
      <trkpt lat="45.30074" lon="5.89362">
        <ele>391.4460144043</ele>
        <time>2017-10-25T18:22:37Z</time>
      </trkpt>
      <trkpt lat="45.3007" lon="5.89359">
        <ele>385.4460144043</ele>
        <time>2017-10-25T18:22:40Z</time>
      </trkpt>
      <trkpt lat="45.30064" lon="5.89358">
        <ele>384.4460144043</ele>
        <time>2017-10-25T18:22:44Z</time>
      </trkpt>
      <trkpt lat="45.30059" lon="5.89359">
        <ele>383.4460144043</ele>
        <time>2017-10-25T18:22:48Z</time>
      </trkpt>
      <trkpt lat="45.30054" lon="5.89357">
        <ele>381.4460144043</ele>
        <time>2017-10-25T18:22:52Z</time>
      </trkpt>
      <trkpt lat="45.30049" lon="5.89356">
        <ele>379.4460144043</ele>
        <time>2017-10-25T18:22:56Z</time>
      </trkpt>
      <trkpt lat="45.30044" lon="5.89359">
        <ele>378.4460144043</ele>
        <time>2017-10-25T18:23:00Z</time>
      </trkpt>
      <trkpt lat="45.30039" lon="5.8936">
        <ele>373.4460144043</ele>
        <time>2017-10-25T18:23:06Z</time>
      </trkpt>
      <trkpt lat="45.30036" lon="5.89366">
        <ele>368.4460144043</ele>
        <time>2017-10-25T18:23:13Z</time>
      </trkpt>
      <trkpt lat="45.30032" lon="5.89369">
        <ele>367.4460144043</ele>
        <time>2017-10-25T18:23:17Z</time>
      </trkpt>
      <trkpt lat="45.30027" lon="5.89372">
        <ele>362.4460144043</ele>
        <time>2017-10-25T18:23:24Z</time>
      </trkpt>
      <trkpt lat="45.30025" lon="5.89379">
        <ele>362.4460144043</ele>
        <time>2017-10-25T18:23:28Z</time>
      </trkpt>
      <trkpt lat="45.30022" lon="5.89384">
        <ele>363.4460144043</ele>
        <time>2017-10-25T18:23:31Z</time>
      </trkpt>
      <trkpt lat="45.30019" lon="5.89392">
        <ele>362.4460144043</ele>
        <time>2017-10-25T18:23:35Z</time>
      </trkpt>
      <trkpt lat="45.30016" lon="5.89397">
        <ele>357.4460144043</ele>
        <time>2017-10-25T18:23:40Z</time>
      </trkpt>
      <trkpt lat="45.30013" lon="5.89402">
        <ele>358.4460144043</ele>
        <time>2017-10-25T18:23:43Z</time>
      </trkpt>
      <trkpt lat="45.3001" lon="5.89408">
        <ele>360.4460144043</ele>
        <time>2017-10-25T18:23:47Z</time>
      </trkpt>
      <trkpt lat="45.30006" lon="5.89418">
        <ele>360.4460144043</ele>
        <time>2017-10-25T18:23:51Z</time>
      </trkpt>
      <trkpt lat="45.30006" lon="5.89425">
        <ele>360.4460144043</ele>
        <time>2017-10-25T18:23:54Z</time>
      </trkpt>
      <trkpt lat="45.30005" lon="5.89432">
        <ele>359.4460144043</ele>
        <time>2017-10-25T18:23:57Z</time>
      </trkpt>
      <trkpt lat="45.30006" lon="5.89439">
        <ele>358.4460144043</ele>
        <time>2017-10-25T18:24:00Z</time>
      </trkpt>
      <trkpt lat="45.30008" lon="5.89446">
        <ele>359.4460144043</ele>
        <time>2017-10-25T18:24:04Z</time>
      </trkpt>
      <trkpt lat="45.30009" lon="5.89452">
        <ele>359.4460144043</ele>
        <time>2017-10-25T18:24:08Z</time>
      </trkpt>
      <trkpt lat="45.30013" lon="5.89455">
        <ele>357.4460144043</ele>
        <time>2017-10-25T18:24:12Z</time>
      </trkpt>
      <trkpt lat="45.30018" lon="5.89459">
        <ele>356.4460144043</ele>
        <time>2017-10-25T18:24:16Z</time>
      </trkpt>
      <trkpt lat="45.30024" lon="5.89462">
        <ele>357.4460144043</ele>
        <time>2017-10-25T18:24:20Z</time>
      </trkpt>
      <trkpt lat="45.30026" lon="5.89468">
        <ele>357.4460144043</ele>
        <time>2017-10-25T18:24:25Z</time>
      </trkpt>
      <trkpt lat="45.30029" lon="5.89474">
        <ele>357.4460144043</ele>
        <time>2017-10-25T18:24:28Z</time>
      </trkpt>
      <trkpt lat="45.30033" lon="5.89478">
        <ele>358.4460144043</ele>
        <time>2017-10-25T18:24:33Z</time>
      </trkpt>
      <trkpt lat="45.30039" lon="5.89478">
        <ele>358.4460144043</ele>
        <time>2017-10-25T18:24:35Z</time>
      </trkpt>
      <trkpt lat="45.30035" lon="5.89484">
        <ele>357.4460144043</ele>
        <time>2017-10-25T18:24:38Z</time>
      </trkpt>
      <trkpt lat="45.30039" lon="5.8949">
        <ele>357.4460144043</ele>
        <time>2017-10-25T18:24:42Z</time>
      </trkpt>
      <trkpt lat="45.30044" lon="5.89491">
        <ele>356.4460144043</ele>
        <time>2017-10-25T18:24:46Z</time>
      </trkpt>
      <trkpt lat="45.30049" lon="5.8949">
        <ele>357.4460144043</ele>
        <time>2017-10-25T18:24:48Z</time>
      </trkpt>
      <trkpt lat="45.30053" lon="5.89492">
        <ele>356.4460144043</ele>
        <time>2017-10-25T18:24:52Z</time>
      </trkpt>
      <trkpt lat="45.30059" lon="5.89493">
        <ele>357.4460144043</ele>
        <time>2017-10-25T18:24:55Z</time>
      </trkpt>
      <trkpt lat="45.30062" lon="5.895">
        <ele>357.4460144043</ele>
        <time>2017-10-25T18:25:01Z</time>
      </trkpt>
      <trkpt lat="45.3006" lon="5.89507">
        <ele>357.4460144043</ele>
        <time>2017-10-25T18:25:04Z</time>
      </trkpt>
      <trkpt lat="45.30047" lon="5.89517">
        <ele>334.4460144043</ele>
        <time>2017-10-25T18:25:10Z</time>
      </trkpt>
      <trkpt lat="45.30051" lon="5.8952">
        <ele>335.4460144043</ele>
        <time>2017-10-25T18:25:14Z</time>
      </trkpt>
      <trkpt lat="45.30053" lon="5.89526">
        <ele>335.4460144043</ele>
        <time>2017-10-25T18:25:18Z</time>
      </trkpt>
      <trkpt lat="45.30056" lon="5.89532">
        <ele>336.4460144043</ele>
        <time>2017-10-25T18:25:21Z</time>
      </trkpt>
      <trkpt lat="45.30059" lon="5.89537">
        <ele>334.4460144043</ele>
        <time>2017-10-25T18:25:27Z</time>
      </trkpt>
      <trkpt lat="45.30063" lon="5.89542">
        <ele>329.4460144043</ele>
        <time>2017-10-25T18:25:34Z</time>
      </trkpt>
      <trkpt lat="45.3006" lon="5.89551">
        <ele>319.4460144043</ele>
        <time>2017-10-25T18:25:43Z</time>
      </trkpt>
      <trkpt lat="45.3006" lon="5.89559">
        <ele>318.4460144043</ele>
        <time>2017-10-25T18:25:48Z</time>
      </trkpt>
      <trkpt lat="45.3006" lon="5.89566">
        <ele>317.4460144043</ele>
        <time>2017-10-25T18:25:53Z</time>
      </trkpt>
      <trkpt lat="45.30061" lon="5.89574">
        <ele>317.4460144043</ele>
        <time>2017-10-25T18:26:00Z</time>
      </trkpt>
      <trkpt lat="45.30063" lon="5.89581">
        <ele>313.4460144043</ele>
        <time>2017-10-25T18:26:07Z</time>
      </trkpt>
      <trkpt lat="45.30069" lon="5.89588">
        <ele>313.4460144043</ele>
        <time>2017-10-25T18:26:12Z</time>
      </trkpt>
      <trkpt lat="45.3007" lon="5.89596">
        <ele>310.4460144043</ele>
        <time>2017-10-25T18:26:16Z</time>
      </trkpt>
      <trkpt lat="45.30076" lon="5.89598">
        <ele>310.4460144043</ele>
        <time>2017-10-25T18:26:19Z</time>
      </trkpt>
      <trkpt lat="45.3008" lon="5.89602">
        <ele>311.4460144043</ele>
        <time>2017-10-25T18:26:25Z</time>
      </trkpt>
      <trkpt lat="45.30084" lon="5.89604">
        <ele>310.4460144043</ele>
        <time>2017-10-25T18:26:29Z</time>
      </trkpt>
      <trkpt lat="45.30083" lon="5.89611">
        <ele>309.4460144043</ele>
        <time>2017-10-25T18:26:33Z</time>
      </trkpt>
      <trkpt lat="45.3008" lon="5.89616">
        <ele>303.4460144043</ele>
        <time>2017-10-25T18:26:43Z</time>
      </trkpt>
      <trkpt lat="45.30077" lon="5.89621">
        <ele>299.4460144043</ele>
        <time>2017-10-25T18:26:49Z</time>
      </trkpt>
      <trkpt lat="45.30074" lon="5.89626">
        <ele>297.4460144043</ele>
        <time>2017-10-25T18:26:54Z</time>
      </trkpt>
      <trkpt lat="45.30073" lon="5.89633">
        <ele>294.4460144043</ele>
        <time>2017-10-25T18:27:00Z</time>
      </trkpt>
      <trkpt lat="45.30071" lon="5.89639">
        <ele>293.4460144043</ele>
        <time>2017-10-25T18:27:04Z</time>
      </trkpt>
      <trkpt lat="45.30069" lon="5.89646">
        <ele>291.4460144043</ele>
        <time>2017-10-25T18:27:10Z</time>
      </trkpt>
      <trkpt lat="45.30069" lon="5.89655">
        <ele>290.4460144043</ele>
        <time>2017-10-25T18:27:15Z</time>
      </trkpt>
      <trkpt lat="45.3007" lon="5.89661">
        <ele>282.4460144043</ele>
        <time>2017-10-25T18:27:22Z</time>
      </trkpt>
      <trkpt lat="45.30072" lon="5.89667">
        <ele>281.4460144043</ele>
        <time>2017-10-25T18:27:28Z</time>
      </trkpt>
      <trkpt lat="45.30072" lon="5.89674">
        <ele>279.4460144043</ele>
        <time>2017-10-25T18:27:32Z</time>
      </trkpt>
      <trkpt lat="45.30069" lon="5.8968">
        <ele>279.4460144043</ele>
        <time>2017-10-25T18:27:34Z</time>
      </trkpt>
      <trkpt lat="45.30069" lon="5.89687">
        <ele>279.4460144043</ele>
        <time>2017-10-25T18:27:39Z</time>
      </trkpt>
      <trkpt lat="45.30068" lon="5.89694">
        <ele>277.4460144043</ele>
        <time>2017-10-25T18:27:43Z</time>
      </trkpt>
      <trkpt lat="45.30067" lon="5.89701">
        <ele>280.4460144043</ele>
        <time>2017-10-25T18:27:45Z</time>
      </trkpt>
      <trkpt lat="45.30066" lon="5.89708">
        <ele>277.4460144043</ele>
        <time>2017-10-25T18:27:48Z</time>
      </trkpt>
      <trkpt lat="45.30064" lon="5.89714">
        <ele>278.4460144043</ele>
        <time>2017-10-25T18:27:53Z</time>
      </trkpt>
      <trkpt lat="45.3006" lon="5.89721">
        <ele>280.4460144043</ele>
        <time>2017-10-25T18:27:56Z</time>
      </trkpt>
      <trkpt lat="45.3006" lon="5.89729">
        <ele>281.4460144043</ele>
        <time>2017-10-25T18:27:58Z</time>
      </trkpt>
      <trkpt lat="45.30058" lon="5.89736">
        <ele>282.4460144043</ele>
        <time>2017-10-25T18:28:01Z</time>
      </trkpt>
      <trkpt lat="45.30055" lon="5.89742">
        <ele>278.4460144043</ele>
        <time>2017-10-25T18:28:07Z</time>
      </trkpt>
      <trkpt lat="45.30052" lon="5.89748">
        <ele>279.4460144043</ele>
        <time>2017-10-25T18:28:10Z</time>
      </trkpt>
      <trkpt lat="45.3005" lon="5.89755">
        <ele>275.4460144043</ele>
        <time>2017-10-25T18:28:14Z</time>
      </trkpt>
      <trkpt lat="45.30047" lon="5.8976">
        <ele>273.4460144043</ele>
        <time>2017-10-25T18:28:17Z</time>
      </trkpt>
      <trkpt lat="45.30043" lon="5.89764">
        <ele>270.4460144043</ele>
        <time>2017-10-25T18:28:22Z</time>
      </trkpt>
      <trkpt lat="45.30039" lon="5.89768">
        <ele>269.4460144043</ele>
        <time>2017-10-25T18:28:27Z</time>
      </trkpt>
      <trkpt lat="45.30037" lon="5.89774">
        <ele>270.4460144043</ele>
        <time>2017-10-25T18:28:30Z</time>
      </trkpt>
      <trkpt lat="45.30032" lon="5.89775">
        <ele>268.4460144043</ele>
        <time>2017-10-25T18:28:34Z</time>
      </trkpt>
      <trkpt lat="45.30029" lon="5.89779">
        <ele>268.4460144043</ele>
        <time>2017-10-25T18:28:37Z</time>
      </trkpt>
      <trkpt lat="45.30025" lon="5.89784">
        <ele>268.4460144043</ele>
        <time>2017-10-25T18:28:40Z</time>
      </trkpt>
      <trkpt lat="45.3002" lon="5.89787">
        <ele>267.4460144043</ele>
        <time>2017-10-25T18:28:44Z</time>
      </trkpt>
      <trkpt lat="45.30016" lon="5.89794">
        <ele>268.4460144043</ele>
        <time>2017-10-25T18:28:48Z</time>
      </trkpt>
      <trkpt lat="45.30011" lon="5.89795">
        <ele>267.4460144043</ele>
        <time>2017-10-25T18:28:52Z</time>
      </trkpt>
      <trkpt lat="45.30006" lon="5.89798">
        <ele>266.4460144043</ele>
        <time>2017-10-25T18:28:57Z</time>
      </trkpt>
      <trkpt lat="45.30003" lon="5.89804">
        <ele>269.4460144043</ele>
        <time>2017-10-25T18:29:00Z</time>
      </trkpt>
      <trkpt lat="45.29998" lon="5.89807">
        <ele>272.4460144043</ele>
        <time>2017-10-25T18:29:03Z</time>
      </trkpt>
      <trkpt lat="45.29993" lon="5.89808">
        <ele>272.4460144043</ele>
        <time>2017-10-25T18:29:07Z</time>
      </trkpt>
      <trkpt lat="45.29988" lon="5.89812">
        <ele>271.4460144043</ele>
        <time>2017-10-25T18:29:12Z</time>
      </trkpt>
      <trkpt lat="45.29984" lon="5.89817">
        <ele>269.4460144043</ele>
        <time>2017-10-25T18:29:23Z</time>
      </trkpt>
      <trkpt lat="45.29979" lon="5.8982">
        <ele>268.4460144043</ele>
        <time>2017-10-25T18:29:27Z</time>
      </trkpt>
      <trkpt lat="45.29977" lon="5.89827">
        <ele>267.4460144043</ele>
        <time>2017-10-25T18:29:31Z</time>
      </trkpt>
      <trkpt lat="45.29975" lon="5.89835">
        <ele>266.4460144043</ele>
        <time>2017-10-25T18:29:35Z</time>
      </trkpt>
      <trkpt lat="45.29972" lon="5.8984">
        <ele>266.4460144043</ele>
        <time>2017-10-25T18:29:38Z</time>
      </trkpt>
      <trkpt lat="45.2997" lon="5.89847">
        <ele>268.4460144043</ele>
        <time>2017-10-25T18:29:41Z</time>
      </trkpt>
      <trkpt lat="45.29967" lon="5.89852">
        <ele>268.4460144043</ele>
        <time>2017-10-25T18:29:45Z</time>
      </trkpt>
      <trkpt lat="45.29963" lon="5.89857">
        <ele>267.4460144043</ele>
        <time>2017-10-25T18:29:48Z</time>
      </trkpt>
      <trkpt lat="45.29958" lon="5.89861">
        <ele>266.4460144043</ele>
        <time>2017-10-25T18:29:52Z</time>
      </trkpt>
      <trkpt lat="45.29954" lon="5.8986">
        <ele>262.4460144043</ele>
        <time>2017-10-25T18:29:56Z</time>
      </trkpt>
      <trkpt lat="45.29949" lon="5.89863">
        <ele>259.4460144043</ele>
        <time>2017-10-25T18:30:01Z</time>
      </trkpt>
      <trkpt lat="45.29944" lon="5.89863">
        <ele>256.4460144043</ele>
        <time>2017-10-25T18:30:05Z</time>
      </trkpt>
      <trkpt lat="45.29939" lon="5.89865">
        <ele>252.44599914551</ele>
        <time>2017-10-25T18:30:09Z</time>
      </trkpt>
      <trkpt lat="45.29933" lon="5.89869">
        <ele>251.44599914551</ele>
        <time>2017-10-25T18:30:13Z</time>
      </trkpt>
      <trkpt lat="45.29929" lon="5.89874">
        <ele>253.44599914551</ele>
        <time>2017-10-25T18:30:16Z</time>
      </trkpt>
      <trkpt lat="45.29924" lon="5.89883">
        <ele>255.44599914551</ele>
        <time>2017-10-25T18:30:21Z</time>
      </trkpt>
      <trkpt lat="45.29919" lon="5.89885">
        <ele>254.44599914551</ele>
        <time>2017-10-25T18:30:25Z</time>
      </trkpt>
      <trkpt lat="45.29914" lon="5.89888">
        <ele>252.44599914551</ele>
        <time>2017-10-25T18:30:29Z</time>
      </trkpt>
      <trkpt lat="45.2991" lon="5.89892">
        <ele>254.44599914551</ele>
        <time>2017-10-25T18:30:32Z</time>
      </trkpt>
      <trkpt lat="45.29906" lon="5.89897">
        <ele>254.44599914551</ele>
        <time>2017-10-25T18:30:35Z</time>
      </trkpt>
      <trkpt lat="45.29902" lon="5.89902">
        <ele>255.44599914551</ele>
        <time>2017-10-25T18:30:38Z</time>
      </trkpt>
    </trkseg>
  </trk>
</gpx>